<?xml version="1.0" encoding="UTF-8" standalone="no" ?>
<gpx xmlns="http://www.topografix.com/GPX/1/1" xmlns:xsi="http://www.w3.org/2001/XMLSchema-instance" xsi:schemaLocation="http://www.topografix.com/GPX/1/1 http://www.topografix.com/GPX/1/1/gpx.xsd" version="1.1" creator="VisuGPX - https://www.visugpx.com">
  <metadata>
    <name>Monistrol VTT Telethon 2015</name>
    <desc><![CDATA[Balade VTT organisée le 05 12 2015 par le club cycliste de Monistrol sur Loire au profit du Telethon 2015. Beaux chemins bien roulants entre Monistrol et Lichemialle, temps ensoleillé, participants sympas ... oui vraiment ... une belle journée.]]></desc>
  </metadata>
  <trk>
    <name><![CDATA[Téléthon Monistrol  05 12 15]]></name>
    <trkseg>
      <trkpt lat="45.28259" lon="4.17707">
        <ele>665</ele>
        <time>2015-12-05T13:03:15Z</time>
      </trkpt>
      <trkpt lat="45.28255" lon="4.17742">
        <ele>665.64</ele>
        <time>2015-12-05T13:06:15Z</time>
      </trkpt>
      <trkpt lat="45.28258" lon="4.17766">
        <ele>665.73</ele>
        <time>2015-12-05T13:06:45Z</time>
      </trkpt>
      <trkpt lat="45.28274" lon="4.17779">
        <ele>665.8</ele>
        <time>2015-12-05T13:06:51Z</time>
      </trkpt>
      <trkpt lat="45.28291" lon="4.17793">
        <ele>665.67</ele>
        <time>2015-12-05T13:06:58Z</time>
      </trkpt>
      <trkpt lat="45.28281" lon="4.17814">
        <ele>665.5</ele>
        <time>2015-12-05T13:07:06Z</time>
      </trkpt>
      <trkpt lat="45.28265" lon="4.17835">
        <ele>664.49</ele>
        <time>2015-12-05T13:07:13Z</time>
      </trkpt>
      <trkpt lat="45.28254" lon="4.17856">
        <ele>664.55</ele>
        <time>2015-12-05T13:07:19Z</time>
      </trkpt>
      <trkpt lat="45.28246" lon="4.17879">
        <ele>664.58</ele>
        <time>2015-12-05T13:07:24Z</time>
      </trkpt>
      <trkpt lat="45.28228" lon="4.17892">
        <ele>662.57</ele>
        <time>2015-12-05T13:07:30Z</time>
      </trkpt>
      <trkpt lat="45.28211" lon="4.17877">
        <ele>660.79</ele>
        <time>2015-12-05T13:07:35Z</time>
      </trkpt>
      <trkpt lat="45.28193" lon="4.17859">
        <ele>658.25</ele>
        <time>2015-12-05T13:07:40Z</time>
      </trkpt>
      <trkpt lat="45.28176" lon="4.17842">
        <ele>654.91</ele>
        <time>2015-12-05T13:07:46Z</time>
      </trkpt>
      <trkpt lat="45.28159" lon="4.17854">
        <ele>652.33</ele>
        <time>2015-12-05T13:07:54Z</time>
      </trkpt>
      <trkpt lat="45.28153" lon="4.17886">
        <ele>652.83</ele>
        <time>2015-12-05T13:08:03Z</time>
      </trkpt>
      <trkpt lat="45.28159" lon="4.17911">
        <ele>654.47</ele>
        <time>2015-12-05T13:08:12Z</time>
      </trkpt>
      <trkpt lat="45.28167" lon="4.17939">
        <ele>656.31</ele>
        <time>2015-12-05T13:08:21Z</time>
      </trkpt>
      <trkpt lat="45.28158" lon="4.1796">
        <ele>658.34</ele>
        <time>2015-12-05T13:08:29Z</time>
      </trkpt>
      <trkpt lat="45.28138" lon="4.17958">
        <ele>659.25</ele>
        <time>2015-12-05T13:08:36Z</time>
      </trkpt>
      <trkpt lat="45.28123" lon="4.17943">
        <ele>660.44</ele>
        <time>2015-12-05T13:08:43Z</time>
      </trkpt>
      <trkpt lat="45.28105" lon="4.17931">
        <ele>663.3</ele>
        <time>2015-12-05T13:08:53Z</time>
      </trkpt>
      <trkpt lat="45.28086" lon="4.17935">
        <ele>665.44</ele>
        <time>2015-12-05T13:09:03Z</time>
      </trkpt>
      <trkpt lat="45.28067" lon="4.17941">
        <ele>666.91</ele>
        <time>2015-12-05T13:09:12Z</time>
      </trkpt>
      <trkpt lat="45.28048" lon="4.1794">
        <ele>669.38</ele>
        <time>2015-12-05T13:09:21Z</time>
      </trkpt>
      <trkpt lat="45.28029" lon="4.17939">
        <ele>672.02</ele>
        <time>2015-12-05T13:09:32Z</time>
      </trkpt>
      <trkpt lat="45.28011" lon="4.17934">
        <ele>673.93</ele>
        <time>2015-12-05T13:09:42Z</time>
      </trkpt>
      <trkpt lat="45.27994" lon="4.17928">
        <ele>676.62</ele>
        <time>2015-12-05T13:09:55Z</time>
      </trkpt>
      <trkpt lat="45.27975" lon="4.17926">
        <ele>678.93</ele>
        <time>2015-12-05T13:10:08Z</time>
      </trkpt>
      <trkpt lat="45.27957" lon="4.17927">
        <ele>680.82</ele>
        <time>2015-12-05T13:10:22Z</time>
      </trkpt>
      <trkpt lat="45.27939" lon="4.17932">
        <ele>682.23</ele>
        <time>2015-12-05T13:10:34Z</time>
      </trkpt>
      <trkpt lat="45.2792" lon="4.1794">
        <ele>683.91</ele>
        <time>2015-12-05T13:10:45Z</time>
      </trkpt>
      <trkpt lat="45.27901" lon="4.17947">
        <ele>686.28</ele>
        <time>2015-12-05T13:10:55Z</time>
      </trkpt>
      <trkpt lat="45.27882" lon="4.1795">
        <ele>687.83</ele>
        <time>2015-12-05T13:11:04Z</time>
      </trkpt>
      <trkpt lat="45.27864" lon="4.17952">
        <ele>689.67</ele>
        <time>2015-12-05T13:11:14Z</time>
      </trkpt>
      <trkpt lat="45.27844" lon="4.17955">
        <ele>690.89</ele>
        <time>2015-12-05T13:11:24Z</time>
      </trkpt>
      <trkpt lat="45.27826" lon="4.17956">
        <ele>692.39</ele>
        <time>2015-12-05T13:11:32Z</time>
      </trkpt>
      <trkpt lat="45.27807" lon="4.17962">
        <ele>693.23</ele>
        <time>2015-12-05T13:11:39Z</time>
      </trkpt>
      <trkpt lat="45.27789" lon="4.1797">
        <ele>693.79</ele>
        <time>2015-12-05T13:11:46Z</time>
      </trkpt>
      <trkpt lat="45.2777" lon="4.17979">
        <ele>693.76</ele>
        <time>2015-12-05T13:11:54Z</time>
      </trkpt>
      <trkpt lat="45.27754" lon="4.17988">
        <ele>693.62</ele>
        <time>2015-12-05T13:12:36Z</time>
      </trkpt>
      <trkpt lat="45.27734" lon="4.17995">
        <ele>692.68</ele>
        <time>2015-12-05T13:12:44Z</time>
      </trkpt>
      <trkpt lat="45.27714" lon="4.18001">
        <ele>692.57</ele>
        <time>2015-12-05T13:12:51Z</time>
      </trkpt>
      <trkpt lat="45.27696" lon="4.18006">
        <ele>692.6</ele>
        <time>2015-12-05T13:12:58Z</time>
      </trkpt>
      <trkpt lat="45.27677" lon="4.18012">
        <ele>692.53</ele>
        <time>2015-12-05T13:13:05Z</time>
      </trkpt>
      <trkpt lat="45.27657" lon="4.18016">
        <ele>692.34</ele>
        <time>2015-12-05T13:13:13Z</time>
      </trkpt>
      <trkpt lat="45.27638" lon="4.18016">
        <ele>691.53</ele>
        <time>2015-12-05T13:13:20Z</time>
      </trkpt>
      <trkpt lat="45.27616" lon="4.18013">
        <ele>690.97</ele>
        <time>2015-12-05T13:13:26Z</time>
      </trkpt>
      <trkpt lat="45.27597" lon="4.18015">
        <ele>690.28</ele>
        <time>2015-12-05T13:13:31Z</time>
      </trkpt>
      <trkpt lat="45.27577" lon="4.18016">
        <ele>689.64</ele>
        <time>2015-12-05T13:13:37Z</time>
      </trkpt>
      <trkpt lat="45.27559" lon="4.18012">
        <ele>688.98</ele>
        <time>2015-12-05T13:13:42Z</time>
      </trkpt>
      <trkpt lat="45.27541" lon="4.1802">
        <ele>687.99</ele>
        <time>2015-12-05T13:13:46Z</time>
      </trkpt>
      <trkpt lat="45.27522" lon="4.18029">
        <ele>687.15</ele>
        <time>2015-12-05T13:13:52Z</time>
      </trkpt>
      <trkpt lat="45.27502" lon="4.18042">
        <ele>686.44</ele>
        <time>2015-12-05T13:13:58Z</time>
      </trkpt>
      <trkpt lat="45.27484" lon="4.18057">
        <ele>685.15</ele>
        <time>2015-12-05T13:14:02Z</time>
      </trkpt>
      <trkpt lat="45.27466" lon="4.18076">
        <ele>683.51</ele>
        <time>2015-12-05T13:14:06Z</time>
      </trkpt>
      <trkpt lat="45.27449" lon="4.18093">
        <ele>681.88</ele>
        <time>2015-12-05T13:14:10Z</time>
      </trkpt>
      <trkpt lat="45.27437" lon="4.18113">
        <ele>681.03</ele>
        <time>2015-12-05T13:14:14Z</time>
      </trkpt>
      <trkpt lat="45.27423" lon="4.18142">
        <ele>680.82</ele>
        <time>2015-12-05T13:14:18Z</time>
      </trkpt>
      <trkpt lat="45.27404" lon="4.18162">
        <ele>680.46</ele>
        <time>2015-12-05T13:14:22Z</time>
      </trkpt>
      <trkpt lat="45.27384" lon="4.1818">
        <ele>680.42</ele>
        <time>2015-12-05T13:14:26Z</time>
      </trkpt>
      <trkpt lat="45.27364" lon="4.18197">
        <ele>681.11</ele>
        <time>2015-12-05T13:14:31Z</time>
      </trkpt>
      <trkpt lat="45.27347" lon="4.1821">
        <ele>681.55</ele>
        <time>2015-12-05T13:14:35Z</time>
      </trkpt>
      <trkpt lat="45.27328" lon="4.18224">
        <ele>681.81</ele>
        <time>2015-12-05T13:14:39Z</time>
      </trkpt>
      <trkpt lat="45.27308" lon="4.18235">
        <ele>681.55</ele>
        <time>2015-12-05T13:14:43Z</time>
      </trkpt>
      <trkpt lat="45.27289" lon="4.18248">
        <ele>681.12</ele>
        <time>2015-12-05T13:14:47Z</time>
      </trkpt>
      <trkpt lat="45.27272" lon="4.18264">
        <ele>680.91</ele>
        <time>2015-12-05T13:14:51Z</time>
      </trkpt>
      <trkpt lat="45.27257" lon="4.18282">
        <ele>679.88</ele>
        <time>2015-12-05T13:14:55Z</time>
      </trkpt>
      <trkpt lat="45.2724" lon="4.18297">
        <ele>679.1</ele>
        <time>2015-12-05T13:14:59Z</time>
      </trkpt>
      <trkpt lat="45.27222" lon="4.18312">
        <ele>678.84</ele>
        <time>2015-12-05T13:15:03Z</time>
      </trkpt>
      <trkpt lat="45.27203" lon="4.18328">
        <ele>678.66</ele>
        <time>2015-12-05T13:15:08Z</time>
      </trkpt>
      <trkpt lat="45.27186" lon="4.18348">
        <ele>677.96</ele>
        <time>2015-12-05T13:15:13Z</time>
      </trkpt>
      <trkpt lat="45.27168" lon="4.18368">
        <ele>677.45</ele>
        <time>2015-12-05T13:15:18Z</time>
      </trkpt>
      <trkpt lat="45.2715" lon="4.18386">
        <ele>676.87</ele>
        <time>2015-12-05T13:15:23Z</time>
      </trkpt>
      <trkpt lat="45.27131" lon="4.18402">
        <ele>676.26</ele>
        <time>2015-12-05T13:15:28Z</time>
      </trkpt>
      <trkpt lat="45.27109" lon="4.18402">
        <ele>676.11</ele>
        <time>2015-12-05T13:15:32Z</time>
      </trkpt>
      <trkpt lat="45.2709" lon="4.1839">
        <ele>676.07</ele>
        <time>2015-12-05T13:15:36Z</time>
      </trkpt>
      <trkpt lat="45.27074" lon="4.18372">
        <ele>677.18</ele>
        <time>2015-12-05T13:15:41Z</time>
      </trkpt>
      <trkpt lat="45.27061" lon="4.18355">
        <ele>680.37</ele>
        <time>2015-12-05T13:15:48Z</time>
      </trkpt>
      <trkpt lat="45.27046" lon="4.1834">
        <ele>683.6</ele>
        <time>2015-12-05T13:15:57Z</time>
      </trkpt>
      <trkpt lat="45.27027" lon="4.18344">
        <ele>686.44</ele>
        <time>2015-12-05T13:16:06Z</time>
      </trkpt>
      <trkpt lat="45.27011" lon="4.18355">
        <ele>688.96</ele>
        <time>2015-12-05T13:16:15Z</time>
      </trkpt>
      <trkpt lat="45.26993" lon="4.18366">
        <ele>690.28</ele>
        <time>2015-12-05T13:16:24Z</time>
      </trkpt>
      <trkpt lat="45.26977" lon="4.18379">
        <ele>691.39</ele>
        <time>2015-12-05T13:16:31Z</time>
      </trkpt>
      <trkpt lat="45.2696" lon="4.18391">
        <ele>692.07</ele>
        <time>2015-12-05T13:16:38Z</time>
      </trkpt>
      <trkpt lat="45.2694" lon="4.18406">
        <ele>692.19</ele>
        <time>2015-12-05T13:16:44Z</time>
      </trkpt>
      <trkpt lat="45.26922" lon="4.18428">
        <ele>691.48</ele>
        <time>2015-12-05T13:16:48Z</time>
      </trkpt>
      <trkpt lat="45.26909" lon="4.18455">
        <ele>690.18</ele>
        <time>2015-12-05T13:16:51Z</time>
      </trkpt>
      <trkpt lat="45.2689" lon="4.18473">
        <ele>688.46</ele>
        <time>2015-12-05T13:16:54Z</time>
      </trkpt>
      <trkpt lat="45.26866" lon="4.18483">
        <ele>686.69</ele>
        <time>2015-12-05T13:16:57Z</time>
      </trkpt>
      <trkpt lat="45.26843" lon="4.185">
        <ele>684.97</ele>
        <time>2015-12-05T13:17:00Z</time>
      </trkpt>
      <trkpt lat="45.26818" lon="4.185">
        <ele>682.8</ele>
        <time>2015-12-05T13:17:03Z</time>
      </trkpt>
      <trkpt lat="45.26801" lon="4.18483">
        <ele>681.73</ele>
        <time>2015-12-05T13:17:06Z</time>
      </trkpt>
      <trkpt lat="45.26782" lon="4.18469">
        <ele>681.24</ele>
        <time>2015-12-05T13:17:09Z</time>
      </trkpt>
      <trkpt lat="45.26757" lon="4.18462">
        <ele>680.86</ele>
        <time>2015-12-05T13:17:12Z</time>
      </trkpt>
      <trkpt lat="45.26731" lon="4.18468">
        <ele>679.47</ele>
        <time>2015-12-05T13:17:15Z</time>
      </trkpt>
      <trkpt lat="45.26713" lon="4.18479">
        <ele>677.81</ele>
        <time>2015-12-05T13:17:17Z</time>
      </trkpt>
      <trkpt lat="45.26696" lon="4.18491">
        <ele>676.14</ele>
        <time>2015-12-05T13:17:19Z</time>
      </trkpt>
      <trkpt lat="45.26671" lon="4.18505">
        <ele>673.78</ele>
        <time>2015-12-05T13:17:22Z</time>
      </trkpt>
      <trkpt lat="45.26648" lon="4.18514">
        <ele>671.69</ele>
        <time>2015-12-05T13:17:25Z</time>
      </trkpt>
      <trkpt lat="45.26628" lon="4.18527">
        <ele>669.97</ele>
        <time>2015-12-05T13:17:28Z</time>
      </trkpt>
      <trkpt lat="45.2661" lon="4.18546">
        <ele>669.13</ele>
        <time>2015-12-05T13:17:31Z</time>
      </trkpt>
      <trkpt lat="45.26596" lon="4.1857">
        <ele>668.35</ele>
        <time>2015-12-05T13:17:35Z</time>
      </trkpt>
      <trkpt lat="45.26587" lon="4.18594">
        <ele>669.87</ele>
        <time>2015-12-05T13:17:40Z</time>
      </trkpt>
      <trkpt lat="45.26578" lon="4.18624">
        <ele>670.94</ele>
        <time>2015-12-05T13:17:45Z</time>
      </trkpt>
      <trkpt lat="45.26575" lon="4.18655">
        <ele>671.62</ele>
        <time>2015-12-05T13:17:50Z</time>
      </trkpt>
      <trkpt lat="45.26585" lon="4.18679">
        <ele>672.87</ele>
        <time>2015-12-05T13:17:56Z</time>
      </trkpt>
      <trkpt lat="45.26594" lon="4.18705">
        <ele>675.23</ele>
        <time>2015-12-05T13:18:03Z</time>
      </trkpt>
      <trkpt lat="45.26598" lon="4.18736">
        <ele>676.83</ele>
        <time>2015-12-05T13:18:09Z</time>
      </trkpt>
      <trkpt lat="45.266" lon="4.18761">
        <ele>677.23</ele>
        <time>2015-12-05T13:18:13Z</time>
      </trkpt>
      <trkpt lat="45.26598" lon="4.18788">
        <ele>677.13</ele>
        <time>2015-12-05T13:18:17Z</time>
      </trkpt>
      <trkpt lat="45.26596" lon="4.18814">
        <ele>676.55</ele>
        <time>2015-12-05T13:18:21Z</time>
      </trkpt>
      <trkpt lat="45.26594" lon="4.18842">
        <ele>676.05</ele>
        <time>2015-12-05T13:18:26Z</time>
      </trkpt>
      <trkpt lat="45.26593" lon="4.18872">
        <ele>676.26</ele>
        <time>2015-12-05T13:18:31Z</time>
      </trkpt>
      <trkpt lat="45.26583" lon="4.18899">
        <ele>676.55</ele>
        <time>2015-12-05T13:18:36Z</time>
      </trkpt>
      <trkpt lat="45.26578" lon="4.18924">
        <ele>679.13</ele>
        <time>2015-12-05T13:18:44Z</time>
      </trkpt>
      <trkpt lat="45.26584" lon="4.18949">
        <ele>683.05</ele>
        <time>2015-12-05T13:18:56Z</time>
      </trkpt>
      <trkpt lat="45.26597" lon="4.18971">
        <ele>687.01</ele>
        <time>2015-12-05T13:19:11Z</time>
      </trkpt>
      <trkpt lat="45.26611" lon="4.18994">
        <ele>688.57</ele>
        <time>2015-12-05T13:19:23Z</time>
      </trkpt>
      <trkpt lat="45.26627" lon="4.19019">
        <ele>689.51</ele>
        <time>2015-12-05T13:19:34Z</time>
      </trkpt>
      <trkpt lat="45.2665" lon="4.19042">
        <ele>691.36</ele>
        <time>2015-12-05T13:19:48Z</time>
      </trkpt>
      <trkpt lat="45.26672" lon="4.19069">
        <ele>692.6</ele>
        <time>2015-12-05T13:19:59Z</time>
      </trkpt>
      <trkpt lat="45.2669" lon="4.19094">
        <ele>693.71</ele>
        <time>2015-12-05T13:20:08Z</time>
      </trkpt>
      <trkpt lat="45.26708" lon="4.1912">
        <ele>694.6</ele>
        <time>2015-12-05T13:20:17Z</time>
      </trkpt>
      <trkpt lat="45.26727" lon="4.19141">
        <ele>695.64</ele>
        <time>2015-12-05T13:20:26Z</time>
      </trkpt>
      <trkpt lat="45.26748" lon="4.1916">
        <ele>695.88</ele>
        <time>2015-12-05T13:20:32Z</time>
      </trkpt>
      <trkpt lat="45.2676" lon="4.19185">
        <ele>695.84</ele>
        <time>2015-12-05T13:20:38Z</time>
      </trkpt>
      <trkpt lat="45.26762" lon="4.19217">
        <ele>695.92</ele>
        <time>2015-12-05T13:20:44Z</time>
      </trkpt>
      <trkpt lat="45.26776" lon="4.19244">
        <ele>697.42</ele>
        <time>2015-12-05T13:20:52Z</time>
      </trkpt>
      <trkpt lat="45.26786" lon="4.19271">
        <ele>698.02</ele>
        <time>2015-12-05T13:20:59Z</time>
      </trkpt>
      <trkpt lat="45.26772" lon="4.19289">
        <ele>699.27</ele>
        <time>2015-12-05T13:21:10Z</time>
      </trkpt>
      <trkpt lat="45.26753" lon="4.19315">
        <ele>701.59</ele>
        <time>2015-12-05T13:21:24Z</time>
      </trkpt>
      <trkpt lat="45.26753" lon="4.19347">
        <ele>703.13</ele>
        <time>2015-12-05T13:21:37Z</time>
      </trkpt>
      <trkpt lat="45.26765" lon="4.19372">
        <ele>706.03</ele>
        <time>2015-12-05T13:21:51Z</time>
      </trkpt>
      <trkpt lat="45.26786" lon="4.19397">
        <ele>709.15</ele>
        <time>2015-12-05T13:22:08Z</time>
      </trkpt>
      <trkpt lat="45.26807" lon="4.19419">
        <ele>711.26</ele>
        <time>2015-12-05T13:22:23Z</time>
      </trkpt>
      <trkpt lat="45.26825" lon="4.19439">
        <ele>713.27</ele>
        <time>2015-12-05T13:22:38Z</time>
      </trkpt>
      <trkpt lat="45.2683" lon="4.19469">
        <ele>715.22</ele>
        <time>2015-12-05T13:22:52Z</time>
      </trkpt>
      <trkpt lat="45.26823" lon="4.1949">
        <ele>717.06</ele>
        <time>2015-12-05T13:23:04Z</time>
      </trkpt>
      <trkpt lat="45.26814" lon="4.19518">
        <ele>717.75</ele>
        <time>2015-12-05T13:23:15Z</time>
      </trkpt>
      <trkpt lat="45.268" lon="4.19541">
        <ele>718.09</ele>
        <time>2015-12-05T13:23:24Z</time>
      </trkpt>
      <trkpt lat="45.26785" lon="4.19559">
        <ele>719.26</ele>
        <time>2015-12-05T13:23:33Z</time>
      </trkpt>
      <trkpt lat="45.26769" lon="4.19575">
        <ele>721.5</ele>
        <time>2015-12-05T13:23:46Z</time>
      </trkpt>
      <trkpt lat="45.26752" lon="4.19604">
        <ele>724.21</ele>
        <time>2015-12-05T13:24:01Z</time>
      </trkpt>
      <trkpt lat="45.2674" lon="4.19641">
        <ele>726.51</ele>
        <time>2015-12-05T13:24:21Z</time>
      </trkpt>
      <trkpt lat="45.26729" lon="4.19665">
        <ele>727.08</ele>
        <time>2015-12-05T13:25:59Z</time>
      </trkpt>
      <trkpt lat="45.26731" lon="4.19687">
        <ele>726.79</ele>
        <time>2015-12-05T13:26:34Z</time>
      </trkpt>
      <trkpt lat="45.26739" lon="4.19715">
        <ele>726.5</ele>
        <time>2015-12-05T13:26:39Z</time>
      </trkpt>
      <trkpt lat="45.26746" lon="4.19744">
        <ele>725.22</ele>
        <time>2015-12-05T13:26:43Z</time>
      </trkpt>
      <trkpt lat="45.26754" lon="4.19768">
        <ele>724.2</ele>
        <time>2015-12-05T13:26:46Z</time>
      </trkpt>
      <trkpt lat="45.26762" lon="4.19796">
        <ele>722.9</ele>
        <time>2015-12-05T13:26:49Z</time>
      </trkpt>
      <trkpt lat="45.26758" lon="4.1982">
        <ele>720.74</ele>
        <time>2015-12-05T13:26:52Z</time>
      </trkpt>
      <trkpt lat="45.26744" lon="4.19848">
        <ele>718.44</ele>
        <time>2015-12-05T13:26:56Z</time>
      </trkpt>
      <trkpt lat="45.26732" lon="4.19868">
        <ele>717.67</ele>
        <time>2015-12-05T13:26:59Z</time>
      </trkpt>
      <trkpt lat="45.26719" lon="4.19888">
        <ele>717.16</ele>
        <time>2015-12-05T13:27:02Z</time>
      </trkpt>
      <trkpt lat="45.26702" lon="4.1991">
        <ele>716.55</ele>
        <time>2015-12-05T13:27:06Z</time>
      </trkpt>
      <trkpt lat="45.26683" lon="4.19929">
        <ele>716.32</ele>
        <time>2015-12-05T13:27:10Z</time>
      </trkpt>
      <trkpt lat="45.26663" lon="4.19945">
        <ele>716.35</ele>
        <time>2015-12-05T13:27:14Z</time>
      </trkpt>
      <trkpt lat="45.26642" lon="4.19959">
        <ele>716.58</ele>
        <time>2015-12-05T13:27:18Z</time>
      </trkpt>
      <trkpt lat="45.26621" lon="4.19968">
        <ele>716.71</ele>
        <time>2015-12-05T13:27:22Z</time>
      </trkpt>
      <trkpt lat="45.26599" lon="4.19974">
        <ele>716.75</ele>
        <time>2015-12-05T13:27:26Z</time>
      </trkpt>
      <trkpt lat="45.26579" lon="4.19976">
        <ele>716.71</ele>
        <time>2015-12-05T13:27:30Z</time>
      </trkpt>
      <trkpt lat="45.26558" lon="4.19976">
        <ele>717.09</ele>
        <time>2015-12-05T13:27:34Z</time>
      </trkpt>
      <trkpt lat="45.26538" lon="4.19975">
        <ele>717.4</ele>
        <time>2015-12-05T13:27:38Z</time>
      </trkpt>
      <trkpt lat="45.2652" lon="4.19973">
        <ele>717.49</ele>
        <time>2015-12-05T13:27:42Z</time>
      </trkpt>
      <trkpt lat="45.26498" lon="4.19969">
        <ele>718.14</ele>
        <time>2015-12-05T13:27:47Z</time>
      </trkpt>
      <trkpt lat="45.26477" lon="4.19965">
        <ele>719.39</ele>
        <time>2015-12-05T13:27:52Z</time>
      </trkpt>
      <trkpt lat="45.26458" lon="4.19962">
        <ele>720.6</ele>
        <time>2015-12-05T13:27:57Z</time>
      </trkpt>
      <trkpt lat="45.26439" lon="4.19959">
        <ele>721.69</ele>
        <time>2015-12-05T13:28:02Z</time>
      </trkpt>
      <trkpt lat="45.26419" lon="4.19956">
        <ele>722.87</ele>
        <time>2015-12-05T13:28:08Z</time>
      </trkpt>
      <trkpt lat="45.26401" lon="4.19957">
        <ele>723.96</ele>
        <time>2015-12-05T13:28:14Z</time>
      </trkpt>
      <trkpt lat="45.26381" lon="4.1996">
        <ele>724.77</ele>
        <time>2015-12-05T13:28:20Z</time>
      </trkpt>
      <trkpt lat="45.26363" lon="4.19956">
        <ele>726.02</ele>
        <time>2015-12-05T13:28:27Z</time>
      </trkpt>
      <trkpt lat="45.26359" lon="4.19979">
        <ele>726.87</ele>
        <time>2015-12-05T13:28:34Z</time>
      </trkpt>
      <trkpt lat="45.26361" lon="4.20006">
        <ele>727.43</ele>
        <time>2015-12-05T13:28:40Z</time>
      </trkpt>
      <trkpt lat="45.2635" lon="4.20025">
        <ele>729.33</ele>
        <time>2015-12-05T13:28:49Z</time>
      </trkpt>
      <trkpt lat="45.26338" lon="4.20045">
        <ele>731.88</ele>
        <time>2015-12-05T13:29:00Z</time>
      </trkpt>
      <trkpt lat="45.26329" lon="4.2007">
        <ele>734</ele>
        <time>2015-12-05T13:29:10Z</time>
      </trkpt>
      <trkpt lat="45.26323" lon="4.20099">
        <ele>734.99</ele>
        <time>2015-12-05T13:29:20Z</time>
      </trkpt>
      <trkpt lat="45.2632" lon="4.20127">
        <ele>736.61</ele>
        <time>2015-12-05T13:29:29Z</time>
      </trkpt>
      <trkpt lat="45.26312" lon="4.2015">
        <ele>738</ele>
        <time>2015-12-05T13:29:37Z</time>
      </trkpt>
      <trkpt lat="45.26294" lon="4.20166">
        <ele>738.72</ele>
        <time>2015-12-05T13:29:44Z</time>
      </trkpt>
      <trkpt lat="45.2628" lon="4.20184">
        <ele>739.05</ele>
        <time>2015-12-05T13:29:51Z</time>
      </trkpt>
      <trkpt lat="45.26263" lon="4.20201">
        <ele>738.9</ele>
        <time>2015-12-05T13:29:57Z</time>
      </trkpt>
      <trkpt lat="45.26242" lon="4.20217">
        <ele>739.29</ele>
        <time>2015-12-05T13:30:05Z</time>
      </trkpt>
      <trkpt lat="45.26223" lon="4.20233">
        <ele>739.46</ele>
        <time>2015-12-05T13:30:11Z</time>
      </trkpt>
      <trkpt lat="45.26206" lon="4.20247">
        <ele>740.07</ele>
        <time>2015-12-05T13:30:17Z</time>
      </trkpt>
      <trkpt lat="45.26191" lon="4.20263">
        <ele>741.58</ele>
        <time>2015-12-05T13:30:24Z</time>
      </trkpt>
      <trkpt lat="45.26176" lon="4.20283">
        <ele>743.03</ele>
        <time>2015-12-05T13:30:31Z</time>
      </trkpt>
      <trkpt lat="45.26159" lon="4.20305">
        <ele>744.24</ele>
        <time>2015-12-05T13:30:39Z</time>
      </trkpt>
      <trkpt lat="45.26146" lon="4.20327">
        <ele>744.9</ele>
        <time>2015-12-05T13:30:46Z</time>
      </trkpt>
      <trkpt lat="45.26133" lon="4.2035">
        <ele>745.84</ele>
        <time>2015-12-05T13:30:54Z</time>
      </trkpt>
      <trkpt lat="45.26122" lon="4.20372">
        <ele>746.76</ele>
        <time>2015-12-05T13:31:01Z</time>
      </trkpt>
      <trkpt lat="45.26107" lon="4.20398">
        <ele>747.6</ele>
        <time>2015-12-05T13:31:10Z</time>
      </trkpt>
      <trkpt lat="45.2609" lon="4.20425">
        <ele>748.2</ele>
        <time>2015-12-05T13:31:18Z</time>
      </trkpt>
      <trkpt lat="45.26076" lon="4.20453">
        <ele>749.26</ele>
        <time>2015-12-05T13:31:26Z</time>
      </trkpt>
      <trkpt lat="45.26062" lon="4.2048">
        <ele>750.29</ele>
        <time>2015-12-05T13:31:36Z</time>
      </trkpt>
      <trkpt lat="45.26048" lon="4.20503">
        <ele>751.73</ele>
        <time>2015-12-05T13:31:46Z</time>
      </trkpt>
      <trkpt lat="45.26032" lon="4.20526">
        <ele>753</ele>
        <time>2015-12-05T13:31:56Z</time>
      </trkpt>
      <trkpt lat="45.26018" lon="4.20552">
        <ele>755.66</ele>
        <time>2015-12-05T13:32:16Z</time>
      </trkpt>
      <trkpt lat="45.26007" lon="4.20571">
        <ele>757.42</ele>
        <time>2015-12-05T13:33:11Z</time>
      </trkpt>
      <trkpt lat="45.25994" lon="4.20592">
        <ele>759.83</ele>
        <time>2015-12-05T13:33:22Z</time>
      </trkpt>
      <trkpt lat="45.25977" lon="4.20617">
        <ele>762.56</ele>
        <time>2015-12-05T13:33:35Z</time>
      </trkpt>
      <trkpt lat="45.25967" lon="4.20641">
        <ele>764.59</ele>
        <time>2015-12-05T13:33:46Z</time>
      </trkpt>
      <trkpt lat="45.25971" lon="4.20671">
        <ele>768.06</ele>
        <time>2015-12-05T13:33:59Z</time>
      </trkpt>
      <trkpt lat="45.25971" lon="4.20703">
        <ele>769.3</ele>
        <time>2015-12-05T13:34:08Z</time>
      </trkpt>
      <trkpt lat="45.25973" lon="4.20734">
        <ele>769.42</ele>
        <time>2015-12-05T13:34:15Z</time>
      </trkpt>
      <trkpt lat="45.25979" lon="4.20763">
        <ele>769.48</ele>
        <time>2015-12-05T13:34:22Z</time>
      </trkpt>
      <trkpt lat="45.25982" lon="4.20792">
        <ele>770.28</ele>
        <time>2015-12-05T13:34:30Z</time>
      </trkpt>
      <trkpt lat="45.25985" lon="4.20819">
        <ele>771.83</ele>
        <time>2015-12-05T13:34:38Z</time>
      </trkpt>
      <trkpt lat="45.25985" lon="4.20846">
        <ele>773.37</ele>
        <time>2015-12-05T13:34:47Z</time>
      </trkpt>
      <trkpt lat="45.25982" lon="4.20871">
        <ele>774.7</ele>
        <time>2015-12-05T13:34:56Z</time>
      </trkpt>
      <trkpt lat="45.25975" lon="4.20897">
        <ele>776.78</ele>
        <time>2015-12-05T13:35:06Z</time>
      </trkpt>
      <trkpt lat="45.25966" lon="4.20921">
        <ele>778.66</ele>
        <time>2015-12-05T13:35:17Z</time>
      </trkpt>
      <trkpt lat="45.25954" lon="4.20942">
        <ele>779.84</ele>
        <time>2015-12-05T13:35:27Z</time>
      </trkpt>
      <trkpt lat="45.25943" lon="4.20964">
        <ele>781.46</ele>
        <time>2015-12-05T13:35:37Z</time>
      </trkpt>
      <trkpt lat="45.25935" lon="4.20988">
        <ele>782.52</ele>
        <time>2015-12-05T13:35:46Z</time>
      </trkpt>
      <trkpt lat="45.25931" lon="4.21016">
        <ele>783.78</ele>
        <time>2015-12-05T13:35:56Z</time>
      </trkpt>
      <trkpt lat="45.25933" lon="4.21044">
        <ele>785.37</ele>
        <time>2015-12-05T13:36:06Z</time>
      </trkpt>
      <trkpt lat="45.25938" lon="4.2107">
        <ele>786.16</ele>
        <time>2015-12-05T13:36:15Z</time>
      </trkpt>
      <trkpt lat="45.25941" lon="4.21096">
        <ele>787.36</ele>
        <time>2015-12-05T13:36:24Z</time>
      </trkpt>
      <trkpt lat="45.25939" lon="4.21121">
        <ele>788.58</ele>
        <time>2015-12-05T13:36:32Z</time>
      </trkpt>
      <trkpt lat="45.25934" lon="4.21147">
        <ele>789.57</ele>
        <time>2015-12-05T13:36:40Z</time>
      </trkpt>
      <trkpt lat="45.25929" lon="4.21173">
        <ele>790.61</ele>
        <time>2015-12-05T13:36:48Z</time>
      </trkpt>
      <trkpt lat="45.25917" lon="4.21198">
        <ele>790.99</ele>
        <time>2015-12-05T13:36:56Z</time>
      </trkpt>
      <trkpt lat="45.25904" lon="4.21221">
        <ele>791.78</ele>
        <time>2015-12-05T13:37:04Z</time>
      </trkpt>
      <trkpt lat="45.25897" lon="4.21246">
        <ele>793.01</ele>
        <time>2015-12-05T13:37:12Z</time>
      </trkpt>
      <trkpt lat="45.25899" lon="4.21275">
        <ele>794.15</ele>
        <time>2015-12-05T13:37:20Z</time>
      </trkpt>
      <trkpt lat="45.25906" lon="4.21301">
        <ele>794.78</ele>
        <time>2015-12-05T13:37:27Z</time>
      </trkpt>
      <trkpt lat="45.25914" lon="4.21328">
        <ele>795.46</ele>
        <time>2015-12-05T13:37:34Z</time>
      </trkpt>
      <trkpt lat="45.25922" lon="4.21355">
        <ele>795.81</ele>
        <time>2015-12-05T13:37:41Z</time>
      </trkpt>
      <trkpt lat="45.25922" lon="4.2138">
        <ele>795.7</ele>
        <time>2015-12-05T13:37:48Z</time>
      </trkpt>
      <trkpt lat="45.25907" lon="4.214">
        <ele>795.43</ele>
        <time>2015-12-05T13:37:54Z</time>
      </trkpt>
      <trkpt lat="45.25893" lon="4.21419">
        <ele>794.77</ele>
        <time>2015-12-05T13:37:59Z</time>
      </trkpt>
      <trkpt lat="45.25878" lon="4.21438">
        <ele>794.34</ele>
        <time>2015-12-05T13:38:04Z</time>
      </trkpt>
      <trkpt lat="45.25863" lon="4.21455">
        <ele>793.61</ele>
        <time>2015-12-05T13:38:08Z</time>
      </trkpt>
      <trkpt lat="45.25849" lon="4.21477">
        <ele>792.38</ele>
        <time>2015-12-05T13:38:12Z</time>
      </trkpt>
      <trkpt lat="45.25837" lon="4.21504">
        <ele>791.29</ele>
        <time>2015-12-05T13:38:17Z</time>
      </trkpt>
      <trkpt lat="45.25828" lon="4.21529">
        <ele>791.17</ele>
        <time>2015-12-05T13:38:22Z</time>
      </trkpt>
      <trkpt lat="45.25819" lon="4.21555">
        <ele>790.44</ele>
        <time>2015-12-05T13:38:27Z</time>
      </trkpt>
      <trkpt lat="45.25822" lon="4.21583">
        <ele>790.44</ele>
        <time>2015-12-05T13:38:32Z</time>
      </trkpt>
      <trkpt lat="45.25837" lon="4.21606">
        <ele>790.98</ele>
        <time>2015-12-05T13:38:38Z</time>
      </trkpt>
      <trkpt lat="45.25851" lon="4.21627">
        <ele>792.25</ele>
        <time>2015-12-05T13:38:45Z</time>
      </trkpt>
      <trkpt lat="45.25868" lon="4.21642">
        <ele>793.13</ele>
        <time>2015-12-05T13:38:52Z</time>
      </trkpt>
      <trkpt lat="45.25888" lon="4.21655">
        <ele>793.92</ele>
        <time>2015-12-05T13:38:58Z</time>
      </trkpt>
      <trkpt lat="45.25905" lon="4.21671">
        <ele>794.77</ele>
        <time>2015-12-05T13:39:04Z</time>
      </trkpt>
      <trkpt lat="45.25923" lon="4.21689">
        <ele>796.29</ele>
        <time>2015-12-05T13:39:10Z</time>
      </trkpt>
      <trkpt lat="45.25938" lon="4.21707">
        <ele>797.98</ele>
        <time>2015-12-05T13:39:16Z</time>
      </trkpt>
      <trkpt lat="45.25952" lon="4.21725">
        <ele>799.35</ele>
        <time>2015-12-05T13:39:22Z</time>
      </trkpt>
      <trkpt lat="45.25966" lon="4.21746">
        <ele>799.88</ele>
        <time>2015-12-05T13:39:27Z</time>
      </trkpt>
      <trkpt lat="45.25981" lon="4.21768">
        <ele>800.01</ele>
        <time>2015-12-05T13:39:32Z</time>
      </trkpt>
      <trkpt lat="45.25996" lon="4.21786">
        <ele>799.82</ele>
        <time>2015-12-05T13:39:36Z</time>
      </trkpt>
      <trkpt lat="45.26015" lon="4.21803">
        <ele>799.54</ele>
        <time>2015-12-05T13:39:40Z</time>
      </trkpt>
      <trkpt lat="45.26036" lon="4.21821">
        <ele>798.65</ele>
        <time>2015-12-05T13:39:44Z</time>
      </trkpt>
      <trkpt lat="45.26056" lon="4.21839">
        <ele>798.01</ele>
        <time>2015-12-05T13:39:48Z</time>
      </trkpt>
      <trkpt lat="45.26075" lon="4.21851">
        <ele>797.78</ele>
        <time>2015-12-05T13:39:52Z</time>
      </trkpt>
      <trkpt lat="45.26096" lon="4.21858">
        <ele>797.83</ele>
        <time>2015-12-05T13:39:56Z</time>
      </trkpt>
      <trkpt lat="45.26114" lon="4.21866">
        <ele>798.4</ele>
        <time>2015-12-05T13:40:00Z</time>
      </trkpt>
      <trkpt lat="45.26129" lon="4.2188">
        <ele>799.13</ele>
        <time>2015-12-05T13:40:04Z</time>
      </trkpt>
      <trkpt lat="45.26145" lon="4.21894">
        <ele>799.68</ele>
        <time>2015-12-05T13:40:08Z</time>
      </trkpt>
      <trkpt lat="45.26161" lon="4.21909">
        <ele>800.65</ele>
        <time>2015-12-05T13:40:13Z</time>
      </trkpt>
      <trkpt lat="45.2618" lon="4.21924">
        <ele>801.88</ele>
        <time>2015-12-05T13:40:19Z</time>
      </trkpt>
      <trkpt lat="45.26196" lon="4.21944">
        <ele>803.32</ele>
        <time>2015-12-05T13:40:25Z</time>
      </trkpt>
      <trkpt lat="45.2621" lon="4.2196">
        <ele>803.78</ele>
        <time>2015-12-05T13:40:31Z</time>
      </trkpt>
      <trkpt lat="45.26225" lon="4.21976">
        <ele>804.88</ele>
        <time>2015-12-05T13:40:38Z</time>
      </trkpt>
      <trkpt lat="45.26241" lon="4.21994">
        <ele>805.49</ele>
        <time>2015-12-05T13:40:45Z</time>
      </trkpt>
      <trkpt lat="45.26257" lon="4.2201">
        <ele>806.19</ele>
        <time>2015-12-05T13:40:52Z</time>
      </trkpt>
      <trkpt lat="45.26275" lon="4.22027">
        <ele>807.52</ele>
        <time>2015-12-05T13:40:59Z</time>
      </trkpt>
      <trkpt lat="45.26292" lon="4.22045">
        <ele>808.24</ele>
        <time>2015-12-05T13:41:05Z</time>
      </trkpt>
      <trkpt lat="45.2631" lon="4.2206">
        <ele>808.92</ele>
        <time>2015-12-05T13:41:11Z</time>
      </trkpt>
      <trkpt lat="45.26323" lon="4.22077">
        <ele>810.34</ele>
        <time>2015-12-05T13:41:18Z</time>
      </trkpt>
      <trkpt lat="45.26334" lon="4.22098">
        <ele>812.11</ele>
        <time>2015-12-05T13:41:28Z</time>
      </trkpt>
      <trkpt lat="45.26353" lon="4.2213">
        <ele>813.75</ele>
        <time>2015-12-05T13:41:42Z</time>
      </trkpt>
      <trkpt lat="45.26356" lon="4.22162">
        <ele>814.54</ele>
        <time>2015-12-05T13:41:49Z</time>
      </trkpt>
      <trkpt lat="45.26349" lon="4.22191">
        <ele>814.6</ele>
        <time>2015-12-05T13:41:55Z</time>
      </trkpt>
      <trkpt lat="45.2634" lon="4.22213">
        <ele>814.36</ele>
        <time>2015-12-05T13:42:00Z</time>
      </trkpt>
      <trkpt lat="45.26331" lon="4.22234">
        <ele>814.25</ele>
        <time>2015-12-05T13:42:05Z</time>
      </trkpt>
      <trkpt lat="45.26323" lon="4.22258">
        <ele>814.26</ele>
        <time>2015-12-05T13:42:10Z</time>
      </trkpt>
      <trkpt lat="45.26319" lon="4.22288">
        <ele>815.25</ele>
        <time>2015-12-05T13:42:16Z</time>
      </trkpt>
      <trkpt lat="45.26319" lon="4.22317">
        <ele>816.26</ele>
        <time>2015-12-05T13:42:22Z</time>
      </trkpt>
      <trkpt lat="45.26319" lon="4.22344">
        <ele>816.65</ele>
        <time>2015-12-05T13:42:28Z</time>
      </trkpt>
      <trkpt lat="45.26319" lon="4.22372">
        <ele>816.6</ele>
        <time>2015-12-05T13:42:34Z</time>
      </trkpt>
      <trkpt lat="45.26318" lon="4.224">
        <ele>816.33</ele>
        <time>2015-12-05T13:42:40Z</time>
      </trkpt>
      <trkpt lat="45.26328" lon="4.22431">
        <ele>815.38</ele>
        <time>2015-12-05T13:42:45Z</time>
      </trkpt>
      <trkpt lat="45.26337" lon="4.22459">
        <ele>814.62</ele>
        <time>2015-12-05T13:42:49Z</time>
      </trkpt>
      <trkpt lat="45.26344" lon="4.22485">
        <ele>813.81</ele>
        <time>2015-12-05T13:42:52Z</time>
      </trkpt>
      <trkpt lat="45.26347" lon="4.22523">
        <ele>812.71</ele>
        <time>2015-12-05T13:42:56Z</time>
      </trkpt>
      <trkpt lat="45.26346" lon="4.22557">
        <ele>811.7</ele>
        <time>2015-12-05T13:43:00Z</time>
      </trkpt>
      <trkpt lat="45.26344" lon="4.22585">
        <ele>811.67</ele>
        <time>2015-12-05T13:43:04Z</time>
      </trkpt>
      <trkpt lat="45.2634" lon="4.22617">
        <ele>811.84</ele>
        <time>2015-12-05T13:43:09Z</time>
      </trkpt>
      <trkpt lat="45.2634" lon="4.22644">
        <ele>812.02</ele>
        <time>2015-12-05T13:43:13Z</time>
      </trkpt>
      <trkpt lat="45.26342" lon="4.22675">
        <ele>812.3</ele>
        <time>2015-12-05T13:43:18Z</time>
      </trkpt>
      <trkpt lat="45.26346" lon="4.22704">
        <ele>812.32</ele>
        <time>2015-12-05T13:43:23Z</time>
      </trkpt>
      <trkpt lat="45.26351" lon="4.22735">
        <ele>812.4</ele>
        <time>2015-12-05T13:43:28Z</time>
      </trkpt>
      <trkpt lat="45.26359" lon="4.22766">
        <ele>811.89</ele>
        <time>2015-12-05T13:43:32Z</time>
      </trkpt>
      <trkpt lat="45.26367" lon="4.22797">
        <ele>810.98</ele>
        <time>2015-12-05T13:43:36Z</time>
      </trkpt>
      <trkpt lat="45.26375" lon="4.22826">
        <ele>810.41</ele>
        <time>2015-12-05T13:43:40Z</time>
      </trkpt>
      <trkpt lat="45.26383" lon="4.22855">
        <ele>810.15</ele>
        <time>2015-12-05T13:43:44Z</time>
      </trkpt>
      <trkpt lat="45.26389" lon="4.22883">
        <ele>809.82</ele>
        <time>2015-12-05T13:43:48Z</time>
      </trkpt>
      <trkpt lat="45.26387" lon="4.22909">
        <ele>809.11</ele>
        <time>2015-12-05T13:43:52Z</time>
      </trkpt>
      <trkpt lat="45.26377" lon="4.22937">
        <ele>808.62</ele>
        <time>2015-12-05T13:43:57Z</time>
      </trkpt>
      <trkpt lat="45.26367" lon="4.22962">
        <ele>808.31</ele>
        <time>2015-12-05T13:44:01Z</time>
      </trkpt>
      <trkpt lat="45.26356" lon="4.22985">
        <ele>808.01</ele>
        <time>2015-12-05T13:44:05Z</time>
      </trkpt>
      <trkpt lat="45.26344" lon="4.23007">
        <ele>807.84</ele>
        <time>2015-12-05T13:44:09Z</time>
      </trkpt>
      <trkpt lat="45.2633" lon="4.23028">
        <ele>807.5</ele>
        <time>2015-12-05T13:44:13Z</time>
      </trkpt>
      <trkpt lat="45.26317" lon="4.23047">
        <ele>807.22</ele>
        <time>2015-12-05T13:44:17Z</time>
      </trkpt>
      <trkpt lat="45.26302" lon="4.23069">
        <ele>808</ele>
        <time>2015-12-05T13:44:22Z</time>
      </trkpt>
      <trkpt lat="45.26297" lon="4.2309">
        <ele>810.1</ele>
        <time>2015-12-05T13:44:44Z</time>
      </trkpt>
      <trkpt lat="45.26309" lon="4.23112">
        <ele>810.53</ele>
        <time>2015-12-05T13:45:09Z</time>
      </trkpt>
      <trkpt lat="45.26311" lon="4.23141">
        <ele>810.2</ele>
        <time>2015-12-05T13:45:15Z</time>
      </trkpt>
      <trkpt lat="45.26312" lon="4.23171">
        <ele>811.69</ele>
        <time>2015-12-05T13:45:22Z</time>
      </trkpt>
      <trkpt lat="45.26306" lon="4.23196">
        <ele>813.49</ele>
        <time>2015-12-05T13:45:29Z</time>
      </trkpt>
      <trkpt lat="45.26285" lon="4.23212">
        <ele>814.86</ele>
        <time>2015-12-05T13:45:36Z</time>
      </trkpt>
      <trkpt lat="45.26265" lon="4.23228">
        <ele>815.44</ele>
        <time>2015-12-05T13:45:41Z</time>
      </trkpt>
      <trkpt lat="45.2625" lon="4.23252">
        <ele>814.58</ele>
        <time>2015-12-05T13:45:45Z</time>
      </trkpt>
      <trkpt lat="45.26245" lon="4.23282">
        <ele>814.08</ele>
        <time>2015-12-05T13:45:49Z</time>
      </trkpt>
      <trkpt lat="45.26241" lon="4.23313">
        <ele>814.25</ele>
        <time>2015-12-05T13:45:54Z</time>
      </trkpt>
      <trkpt lat="45.26241" lon="4.23344">
        <ele>815.11</ele>
        <time>2015-12-05T13:46:00Z</time>
      </trkpt>
      <trkpt lat="45.26241" lon="4.23372">
        <ele>814</ele>
        <time>2015-12-05T13:46:05Z</time>
      </trkpt>
      <trkpt lat="45.26241" lon="4.23399">
        <ele>812.23</ele>
        <time>2015-12-05T13:46:10Z</time>
      </trkpt>
      <trkpt lat="45.2624" lon="4.23427">
        <ele>808.88</ele>
        <time>2015-12-05T13:46:18Z</time>
      </trkpt>
      <trkpt lat="45.26231" lon="4.23455">
        <ele>806.03</ele>
        <time>2015-12-05T13:46:24Z</time>
      </trkpt>
      <trkpt lat="45.26238" lon="4.23481">
        <ele>802.34</ele>
        <time>2015-12-05T13:46:30Z</time>
      </trkpt>
      <trkpt lat="45.26248" lon="4.235">
        <ele>797.91</ele>
        <time>2015-12-05T13:46:38Z</time>
      </trkpt>
      <trkpt lat="45.26228" lon="4.2351">
        <ele>794.62</ele>
        <time>2015-12-05T13:46:44Z</time>
      </trkpt>
      <trkpt lat="45.26223" lon="4.23542">
        <ele>792.1</ele>
        <time>2015-12-05T13:46:49Z</time>
      </trkpt>
      <trkpt lat="45.26215" lon="4.2357">
        <ele>790.42</ele>
        <time>2015-12-05T13:46:56Z</time>
      </trkpt>
      <trkpt lat="45.26207" lon="4.23605">
        <ele>792.17</ele>
        <time>2015-12-05T13:47:06Z</time>
      </trkpt>
      <trkpt lat="45.26196" lon="4.23636">
        <ele>794.61</ele>
        <time>2015-12-05T13:47:18Z</time>
      </trkpt>
      <trkpt lat="45.26186" lon="4.2366">
        <ele>796.97</ele>
        <time>2015-12-05T13:47:31Z</time>
      </trkpt>
      <trkpt lat="45.26172" lon="4.23687">
        <ele>799.8</ele>
        <time>2015-12-05T13:47:44Z</time>
      </trkpt>
      <trkpt lat="45.26164" lon="4.23718">
        <ele>803.07</ele>
        <time>2015-12-05T13:47:59Z</time>
      </trkpt>
      <trkpt lat="45.26156" lon="4.2375">
        <ele>806.53</ele>
        <time>2015-12-05T13:48:17Z</time>
      </trkpt>
      <trkpt lat="45.26151" lon="4.23778">
        <ele>809.54</ele>
        <time>2015-12-05T13:48:32Z</time>
      </trkpt>
      <trkpt lat="45.26143" lon="4.23807">
        <ele>810.38</ele>
        <time>2015-12-05T13:48:43Z</time>
      </trkpt>
      <trkpt lat="45.26129" lon="4.2383">
        <ele>811.3</ele>
        <time>2015-12-05T13:48:53Z</time>
      </trkpt>
      <trkpt lat="45.26112" lon="4.23849">
        <ele>811.67</ele>
        <time>2015-12-05T13:49:01Z</time>
      </trkpt>
      <trkpt lat="45.26095" lon="4.23869">
        <ele>811.69</ele>
        <time>2015-12-05T13:49:08Z</time>
      </trkpt>
      <trkpt lat="45.2608" lon="4.23888">
        <ele>812.04</ele>
        <time>2015-12-05T13:49:15Z</time>
      </trkpt>
      <trkpt lat="45.26064" lon="4.23907">
        <ele>812.41</ele>
        <time>2015-12-05T13:49:21Z</time>
      </trkpt>
      <trkpt lat="45.26049" lon="4.23924">
        <ele>811.93</ele>
        <time>2015-12-05T13:49:25Z</time>
      </trkpt>
      <trkpt lat="45.2603" lon="4.2394">
        <ele>810.71</ele>
        <time>2015-12-05T13:49:30Z</time>
      </trkpt>
      <trkpt lat="45.26012" lon="4.23955">
        <ele>810.56</ele>
        <time>2015-12-05T13:49:36Z</time>
      </trkpt>
      <trkpt lat="45.25993" lon="4.2397">
        <ele>811.55</ele>
        <time>2015-12-05T13:49:43Z</time>
      </trkpt>
      <trkpt lat="45.25978" lon="4.23985">
        <ele>812.85</ele>
        <time>2015-12-05T13:49:52Z</time>
      </trkpt>
      <trkpt lat="45.25968" lon="4.24014">
        <ele>814.35</ele>
        <time>2015-12-05T13:50:01Z</time>
      </trkpt>
      <trkpt lat="45.25963" lon="4.24038">
        <ele>815.28</ele>
        <time>2015-12-05T13:50:09Z</time>
      </trkpt>
      <trkpt lat="45.2596" lon="4.24067">
        <ele>817.07</ele>
        <time>2015-12-05T13:50:18Z</time>
      </trkpt>
      <trkpt lat="45.25955" lon="4.24095">
        <ele>818.36</ele>
        <time>2015-12-05T13:50:26Z</time>
      </trkpt>
      <trkpt lat="45.25944" lon="4.2412">
        <ele>819.6</ele>
        <time>2015-12-05T13:50:36Z</time>
      </trkpt>
      <trkpt lat="45.25933" lon="4.24146">
        <ele>820.97</ele>
        <time>2015-12-05T13:50:46Z</time>
      </trkpt>
      <trkpt lat="45.2592" lon="4.24171">
        <ele>822.1</ele>
        <time>2015-12-05T13:50:55Z</time>
      </trkpt>
      <trkpt lat="45.25905" lon="4.24197">
        <ele>822.48</ele>
        <time>2015-12-05T13:51:04Z</time>
      </trkpt>
      <trkpt lat="45.25889" lon="4.24218">
        <ele>822.77</ele>
        <time>2015-12-05T13:51:11Z</time>
      </trkpt>
      <trkpt lat="45.25874" lon="4.24236">
        <ele>822.71</ele>
        <time>2015-12-05T13:51:17Z</time>
      </trkpt>
      <trkpt lat="45.25859" lon="4.24253">
        <ele>822.45</ele>
        <time>2015-12-05T13:51:23Z</time>
      </trkpt>
      <trkpt lat="45.25846" lon="4.24273">
        <ele>822.79</ele>
        <time>2015-12-05T13:51:30Z</time>
      </trkpt>
      <trkpt lat="45.25847" lon="4.24304">
        <ele>822.64</ele>
        <time>2015-12-05T13:51:36Z</time>
      </trkpt>
      <trkpt lat="45.25848" lon="4.24337">
        <ele>822.3</ele>
        <time>2015-12-05T13:51:42Z</time>
      </trkpt>
      <trkpt lat="45.25849" lon="4.24365">
        <ele>822.38</ele>
        <time>2015-12-05T13:51:48Z</time>
      </trkpt>
      <trkpt lat="45.25852" lon="4.24395">
        <ele>824.11</ele>
        <time>2015-12-05T13:51:56Z</time>
      </trkpt>
      <trkpt lat="45.25853" lon="4.2443">
        <ele>825.65</ele>
        <time>2015-12-05T13:52:05Z</time>
      </trkpt>
      <trkpt lat="45.25855" lon="4.24462">
        <ele>825.67</ele>
        <time>2015-12-05T13:52:13Z</time>
      </trkpt>
      <trkpt lat="45.25854" lon="4.24492">
        <ele>824.37</ele>
        <time>2015-12-05T13:52:19Z</time>
      </trkpt>
      <trkpt lat="45.25859" lon="4.2451">
        <ele>822.75</ele>
        <time>2015-12-05T13:52:48Z</time>
      </trkpt>
      <trkpt lat="45.2586" lon="4.24538">
        <ele>822.53</ele>
        <time>2015-12-05T13:53:35Z</time>
      </trkpt>
      <trkpt lat="45.25858" lon="4.24563">
        <ele>821.85</ele>
        <time>2015-12-05T13:53:48Z</time>
      </trkpt>
      <trkpt lat="45.25863" lon="4.24592">
        <ele>821.84</ele>
        <time>2015-12-05T13:54:01Z</time>
      </trkpt>
      <trkpt lat="45.25868" lon="4.24619">
        <ele>820.95</ele>
        <time>2015-12-05T13:54:06Z</time>
      </trkpt>
      <trkpt lat="45.25875" lon="4.24643">
        <ele>821.04</ele>
        <time>2015-12-05T13:54:12Z</time>
      </trkpt>
      <trkpt lat="45.25883" lon="4.24667">
        <ele>821.69</ele>
        <time>2015-12-05T13:54:19Z</time>
      </trkpt>
      <trkpt lat="45.25891" lon="4.2469">
        <ele>822.62</ele>
        <time>2015-12-05T13:54:26Z</time>
      </trkpt>
      <trkpt lat="45.25896" lon="4.24717">
        <ele>824.48</ele>
        <time>2015-12-05T13:54:36Z</time>
      </trkpt>
      <trkpt lat="45.25901" lon="4.24749">
        <ele>826.78</ele>
        <time>2015-12-05T13:54:46Z</time>
      </trkpt>
      <trkpt lat="45.25909" lon="4.24782">
        <ele>829.43</ele>
        <time>2015-12-05T13:54:57Z</time>
      </trkpt>
      <trkpt lat="45.25914" lon="4.24813">
        <ele>830.73</ele>
        <time>2015-12-05T13:55:07Z</time>
      </trkpt>
      <trkpt lat="45.2592" lon="4.24843">
        <ele>832.15</ele>
        <time>2015-12-05T13:55:17Z</time>
      </trkpt>
      <trkpt lat="45.25927" lon="4.24871">
        <ele>833.28</ele>
        <time>2015-12-05T13:55:25Z</time>
      </trkpt>
      <trkpt lat="45.2594" lon="4.2489">
        <ele>833.88</ele>
        <time>2015-12-05T13:55:32Z</time>
      </trkpt>
      <trkpt lat="45.25954" lon="4.24904">
        <ele>833.97</ele>
        <time>2015-12-05T13:55:39Z</time>
      </trkpt>
      <trkpt lat="45.25971" lon="4.24915">
        <ele>834.92</ele>
        <time>2015-12-05T13:55:46Z</time>
      </trkpt>
      <trkpt lat="45.25988" lon="4.24926">
        <ele>836.56</ele>
        <time>2015-12-05T13:55:55Z</time>
      </trkpt>
      <trkpt lat="45.26003" lon="4.24942">
        <ele>837.51</ele>
        <time>2015-12-05T13:56:02Z</time>
      </trkpt>
      <trkpt lat="45.26018" lon="4.24963">
        <ele>838.43</ele>
        <time>2015-12-05T13:56:11Z</time>
      </trkpt>
      <trkpt lat="45.2603" lon="4.24985">
        <ele>839.88</ele>
        <time>2015-12-05T13:56:20Z</time>
      </trkpt>
      <trkpt lat="45.26047" lon="4.25002">
        <ele>841.38</ele>
        <time>2015-12-05T13:56:28Z</time>
      </trkpt>
      <trkpt lat="45.26063" lon="4.25015">
        <ele>841.97</ele>
        <time>2015-12-05T13:56:35Z</time>
      </trkpt>
      <trkpt lat="45.2608" lon="4.25031">
        <ele>842.6</ele>
        <time>2015-12-05T13:56:42Z</time>
      </trkpt>
      <trkpt lat="45.26096" lon="4.25044">
        <ele>843.07</ele>
        <time>2015-12-05T13:56:48Z</time>
      </trkpt>
      <trkpt lat="45.26111" lon="4.25057">
        <ele>843.48</ele>
        <time>2015-12-05T13:56:54Z</time>
      </trkpt>
      <trkpt lat="45.26127" lon="4.25071">
        <ele>843.99</ele>
        <time>2015-12-05T13:57:00Z</time>
      </trkpt>
      <trkpt lat="45.26145" lon="4.25084">
        <ele>844.39</ele>
        <time>2015-12-05T13:57:06Z</time>
      </trkpt>
      <trkpt lat="45.26164" lon="4.25096">
        <ele>844.9</ele>
        <time>2015-12-05T13:57:12Z</time>
      </trkpt>
      <trkpt lat="45.26183" lon="4.2511">
        <ele>845.23</ele>
        <time>2015-12-05T13:57:18Z</time>
      </trkpt>
      <trkpt lat="45.26201" lon="4.25124">
        <ele>845.3</ele>
        <time>2015-12-05T13:57:23Z</time>
      </trkpt>
      <trkpt lat="45.26216" lon="4.2514">
        <ele>845.39</ele>
        <time>2015-12-05T13:57:28Z</time>
      </trkpt>
      <trkpt lat="45.26232" lon="4.25158">
        <ele>845.49</ele>
        <time>2015-12-05T13:57:34Z</time>
      </trkpt>
      <trkpt lat="45.26248" lon="4.25174">
        <ele>845.44</ele>
        <time>2015-12-05T13:57:39Z</time>
      </trkpt>
      <trkpt lat="45.26264" lon="4.25191">
        <ele>845.44</ele>
        <time>2015-12-05T13:57:44Z</time>
      </trkpt>
      <trkpt lat="45.26274" lon="4.25212">
        <ele>845.58</ele>
        <time>2015-12-05T13:57:49Z</time>
      </trkpt>
      <trkpt lat="45.26286" lon="4.25237">
        <ele>846</ele>
        <time>2015-12-05T13:57:55Z</time>
      </trkpt>
      <trkpt lat="45.263" lon="4.25261">
        <ele>845.92</ele>
        <time>2015-12-05T13:58:00Z</time>
      </trkpt>
      <trkpt lat="45.26317" lon="4.25286">
        <ele>845.03</ele>
        <time>2015-12-05T13:58:04Z</time>
      </trkpt>
      <trkpt lat="45.2633" lon="4.25305">
        <ele>844.34</ele>
        <time>2015-12-05T13:58:07Z</time>
      </trkpt>
      <trkpt lat="45.26339" lon="4.25328">
        <ele>843.87</ele>
        <time>2015-12-05T13:58:10Z</time>
      </trkpt>
      <trkpt lat="45.26352" lon="4.25355">
        <ele>843.41</ele>
        <time>2015-12-05T13:58:14Z</time>
      </trkpt>
      <trkpt lat="45.26362" lon="4.25382">
        <ele>843.19</ele>
        <time>2015-12-05T13:58:18Z</time>
      </trkpt>
      <trkpt lat="45.26367" lon="4.25408">
        <ele>843.15</ele>
        <time>2015-12-05T13:58:22Z</time>
      </trkpt>
      <trkpt lat="45.26375" lon="4.25434">
        <ele>843.44</ele>
        <time>2015-12-05T13:58:27Z</time>
      </trkpt>
      <trkpt lat="45.26382" lon="4.25456">
        <ele>843.51</ele>
        <time>2015-12-05T13:58:31Z</time>
      </trkpt>
      <trkpt lat="45.26397" lon="4.25482">
        <ele>843.19</ele>
        <time>2015-12-05T13:58:35Z</time>
      </trkpt>
      <trkpt lat="45.26411" lon="4.25507">
        <ele>842.3</ele>
        <time>2015-12-05T13:58:39Z</time>
      </trkpt>
      <trkpt lat="45.26424" lon="4.2553">
        <ele>841.81</ele>
        <time>2015-12-05T13:58:43Z</time>
      </trkpt>
      <trkpt lat="45.26435" lon="4.25551">
        <ele>841.8</ele>
        <time>2015-12-05T13:58:47Z</time>
      </trkpt>
      <trkpt lat="45.26446" lon="4.25579">
        <ele>842.13</ele>
        <time>2015-12-05T13:58:52Z</time>
      </trkpt>
      <trkpt lat="45.26452" lon="4.25604">
        <ele>842.5</ele>
        <time>2015-12-05T13:58:56Z</time>
      </trkpt>
      <trkpt lat="45.26461" lon="4.25633">
        <ele>843.04</ele>
        <time>2015-12-05T13:59:01Z</time>
      </trkpt>
      <trkpt lat="45.2647" lon="4.25659">
        <ele>843.12</ele>
        <time>2015-12-05T13:59:06Z</time>
      </trkpt>
      <trkpt lat="45.2648" lon="4.25681">
        <ele>843.97</ele>
        <time>2015-12-05T13:59:11Z</time>
      </trkpt>
      <trkpt lat="45.26491" lon="4.25704">
        <ele>846.05</ele>
        <time>2015-12-05T13:59:18Z</time>
      </trkpt>
      <trkpt lat="45.26505" lon="4.25725">
        <ele>848.24</ele>
        <time>2015-12-05T13:59:26Z</time>
      </trkpt>
      <trkpt lat="45.2652" lon="4.25742">
        <ele>849.55</ele>
        <time>2015-12-05T13:59:32Z</time>
      </trkpt>
      <trkpt lat="45.26535" lon="4.25761">
        <ele>849.84</ele>
        <time>2015-12-05T13:59:38Z</time>
      </trkpt>
      <trkpt lat="45.2655" lon="4.2578">
        <ele>850.18</ele>
        <time>2015-12-05T13:59:44Z</time>
      </trkpt>
      <trkpt lat="45.26563" lon="4.25799">
        <ele>850.88</ele>
        <time>2015-12-05T13:59:51Z</time>
      </trkpt>
      <trkpt lat="45.26577" lon="4.25817">
        <ele>851.99</ele>
        <time>2015-12-05T13:59:59Z</time>
      </trkpt>
      <trkpt lat="45.26594" lon="4.25829">
        <ele>854.5</ele>
        <time>2015-12-05T14:00:08Z</time>
      </trkpt>
      <trkpt lat="45.26612" lon="4.2583">
        <ele>856.33</ele>
        <time>2015-12-05T14:00:19Z</time>
      </trkpt>
      <trkpt lat="45.26633" lon="4.25825">
        <ele>857.77</ele>
        <time>2015-12-05T14:00:31Z</time>
      </trkpt>
      <trkpt lat="45.26656" lon="4.25822">
        <ele>859.23</ele>
        <time>2015-12-05T14:00:42Z</time>
      </trkpt>
      <trkpt lat="45.2668" lon="4.25812">
        <ele>860.46</ele>
        <time>2015-12-05T14:00:54Z</time>
      </trkpt>
      <trkpt lat="45.26696" lon="4.25823">
        <ele>862.29</ele>
        <time>2015-12-05T14:01:07Z</time>
      </trkpt>
      <trkpt lat="45.26692" lon="4.25851">
        <ele>863.12</ele>
        <time>2015-12-05T14:01:16Z</time>
      </trkpt>
      <trkpt lat="45.26687" lon="4.25878">
        <ele>862.93</ele>
        <time>2015-12-05T14:01:25Z</time>
      </trkpt>
      <trkpt lat="45.26685" lon="4.25908">
        <ele>862.95</ele>
        <time>2015-12-05T14:01:32Z</time>
      </trkpt>
      <trkpt lat="45.26681" lon="4.25945">
        <ele>862.47</ele>
        <time>2015-12-05T14:01:36Z</time>
      </trkpt>
      <trkpt lat="45.26679" lon="4.25977">
        <ele>861.04</ele>
        <time>2015-12-05T14:01:39Z</time>
      </trkpt>
      <trkpt lat="45.26677" lon="4.26015">
        <ele>858.48</ele>
        <time>2015-12-05T14:01:42Z</time>
      </trkpt>
      <trkpt lat="45.26674" lon="4.26041">
        <ele>855.96</ele>
        <time>2015-12-05T14:01:44Z</time>
      </trkpt>
      <trkpt lat="45.2667" lon="4.26076">
        <ele>853.37</ele>
        <time>2015-12-05T14:01:47Z</time>
      </trkpt>
      <trkpt lat="45.26673" lon="4.261">
        <ele>851.5</ele>
        <time>2015-12-05T14:01:50Z</time>
      </trkpt>
      <trkpt lat="45.26682" lon="4.26123">
        <ele>850.4</ele>
        <time>2015-12-05T14:01:53Z</time>
      </trkpt>
      <trkpt lat="45.26695" lon="4.26139">
        <ele>850.39</ele>
        <time>2015-12-05T14:01:58Z</time>
      </trkpt>
      <trkpt lat="45.26709" lon="4.26159">
        <ele>851.7</ele>
        <time>2015-12-05T14:02:06Z</time>
      </trkpt>
      <trkpt lat="45.26722" lon="4.2618">
        <ele>851.78</ele>
        <time>2015-12-05T14:02:11Z</time>
      </trkpt>
      <trkpt lat="45.26734" lon="4.26197">
        <ele>851.96</ele>
        <time>2015-12-05T14:02:18Z</time>
      </trkpt>
      <trkpt lat="45.26748" lon="4.26215">
        <ele>852.2</ele>
        <time>2015-12-05T14:02:24Z</time>
      </trkpt>
      <trkpt lat="45.26759" lon="4.26236">
        <ele>852.3</ele>
        <time>2015-12-05T14:02:30Z</time>
      </trkpt>
      <trkpt lat="45.26768" lon="4.26263">
        <ele>851.79</ele>
        <time>2015-12-05T14:02:38Z</time>
      </trkpt>
      <trkpt lat="45.26775" lon="4.26294">
        <ele>852.2</ele>
        <time>2015-12-05T14:02:47Z</time>
      </trkpt>
      <trkpt lat="45.26781" lon="4.26328">
        <ele>851.55</ele>
        <time>2015-12-05T14:02:54Z</time>
      </trkpt>
      <trkpt lat="45.26783" lon="4.26358">
        <ele>850.53</ele>
        <time>2015-12-05T14:02:59Z</time>
      </trkpt>
      <trkpt lat="45.26778" lon="4.26389">
        <ele>848.81</ele>
        <time>2015-12-05T14:03:04Z</time>
      </trkpt>
      <trkpt lat="45.26788" lon="4.26418">
        <ele>846.62</ele>
        <time>2015-12-05T14:03:09Z</time>
      </trkpt>
      <trkpt lat="45.26814" lon="4.26428">
        <ele>844.47</ele>
        <time>2015-12-05T14:03:13Z</time>
      </trkpt>
      <trkpt lat="45.26837" lon="4.2645">
        <ele>842.01</ele>
        <time>2015-12-05T14:03:16Z</time>
      </trkpt>
      <trkpt lat="45.26855" lon="4.26467">
        <ele>839.6</ele>
        <time>2015-12-05T14:03:18Z</time>
      </trkpt>
      <trkpt lat="45.26873" lon="4.26485">
        <ele>837</ele>
        <time>2015-12-05T14:03:20Z</time>
      </trkpt>
      <trkpt lat="45.26893" lon="4.26499">
        <ele>834.62</ele>
        <time>2015-12-05T14:03:22Z</time>
      </trkpt>
      <trkpt lat="45.26912" lon="4.26508">
        <ele>831.95</ele>
        <time>2015-12-05T14:03:24Z</time>
      </trkpt>
      <trkpt lat="45.26933" lon="4.26517">
        <ele>830.45</ele>
        <time>2015-12-05T14:03:27Z</time>
      </trkpt>
      <trkpt lat="45.26948" lon="4.26534">
        <ele>829.15</ele>
        <time>2015-12-05T14:03:32Z</time>
      </trkpt>
      <trkpt lat="45.26937" lon="4.26555">
        <ele>827.98</ele>
        <time>2015-12-05T14:03:42Z</time>
      </trkpt>
      <trkpt lat="45.26935" lon="4.26564">
        <ele>828.25</ele>
        <time>2015-12-05T14:05:02Z</time>
      </trkpt>
      <trkpt lat="45.26923" lon="4.26589">
        <ele>828.22</ele>
        <time>2015-12-05T14:05:15Z</time>
      </trkpt>
      <trkpt lat="45.26912" lon="4.26611">
        <ele>828.66</ele>
        <time>2015-12-05T14:05:22Z</time>
      </trkpt>
      <trkpt lat="45.269" lon="4.26633">
        <ele>829.27</ele>
        <time>2015-12-05T14:05:29Z</time>
      </trkpt>
      <trkpt lat="45.26888" lon="4.26655">
        <ele>829.91</ele>
        <time>2015-12-05T14:05:35Z</time>
      </trkpt>
      <trkpt lat="45.26877" lon="4.26677">
        <ele>830.5</ele>
        <time>2015-12-05T14:05:41Z</time>
      </trkpt>
      <trkpt lat="45.26866" lon="4.267">
        <ele>831.61</ele>
        <time>2015-12-05T14:05:48Z</time>
      </trkpt>
      <trkpt lat="45.26852" lon="4.26723">
        <ele>832.71</ele>
        <time>2015-12-05T14:05:56Z</time>
      </trkpt>
      <trkpt lat="45.2684" lon="4.26744">
        <ele>833.48</ele>
        <time>2015-12-05T14:06:04Z</time>
      </trkpt>
      <trkpt lat="45.26829" lon="4.26767">
        <ele>834.36</ele>
        <time>2015-12-05T14:06:12Z</time>
      </trkpt>
      <trkpt lat="45.2682" lon="4.2679">
        <ele>835.5</ele>
        <time>2015-12-05T14:06:20Z</time>
      </trkpt>
      <trkpt lat="45.26809" lon="4.26815">
        <ele>836.29</ele>
        <time>2015-12-05T14:06:29Z</time>
      </trkpt>
      <trkpt lat="45.26801" lon="4.26839">
        <ele>837.72</ele>
        <time>2015-12-05T14:06:38Z</time>
      </trkpt>
      <trkpt lat="45.26788" lon="4.26865">
        <ele>839.22</ele>
        <time>2015-12-05T14:06:49Z</time>
      </trkpt>
      <trkpt lat="45.26775" lon="4.26888">
        <ele>839.9</ele>
        <time>2015-12-05T14:06:57Z</time>
      </trkpt>
      <trkpt lat="45.26761" lon="4.2691">
        <ele>841.47</ele>
        <time>2015-12-05T14:07:08Z</time>
      </trkpt>
      <trkpt lat="45.26742" lon="4.26931">
        <ele>843.07</ele>
        <time>2015-12-05T14:07:23Z</time>
      </trkpt>
      <trkpt lat="45.26722" lon="4.26971">
        <ele>846.13</ele>
        <time>2015-12-05T14:07:45Z</time>
      </trkpt>
      <trkpt lat="45.26697" lon="4.27009">
        <ele>849.1</ele>
        <time>2015-12-05T14:08:03Z</time>
      </trkpt>
      <trkpt lat="45.26676" lon="4.27032">
        <ele>851.75</ele>
        <time>2015-12-05T14:08:19Z</time>
      </trkpt>
      <trkpt lat="45.26648" lon="4.2705">
        <ele>853.46</ele>
        <time>2015-12-05T14:08:34Z</time>
      </trkpt>
      <trkpt lat="45.26627" lon="4.27065">
        <ele>854.94</ele>
        <time>2015-12-05T14:08:49Z</time>
      </trkpt>
      <trkpt lat="45.26607" lon="4.27078">
        <ele>858.18</ele>
        <time>2015-12-05T14:09:06Z</time>
      </trkpt>
      <trkpt lat="45.26589" lon="4.27096">
        <ele>860.54</ele>
        <time>2015-12-05T14:09:21Z</time>
      </trkpt>
      <trkpt lat="45.26576" lon="4.27119">
        <ele>863.21</ele>
        <time>2015-12-05T14:09:39Z</time>
      </trkpt>
      <trkpt lat="45.26563" lon="4.27147">
        <ele>865.2</ele>
        <time>2015-12-05T14:09:55Z</time>
      </trkpt>
      <trkpt lat="45.26551" lon="4.27173">
        <ele>867.15</ele>
        <time>2015-12-05T14:10:11Z</time>
      </trkpt>
      <trkpt lat="45.26534" lon="4.27198">
        <ele>869.69</ele>
        <time>2015-12-05T14:10:27Z</time>
      </trkpt>
      <trkpt lat="45.26517" lon="4.27221">
        <ele>871.14</ele>
        <time>2015-12-05T14:10:41Z</time>
      </trkpt>
      <trkpt lat="45.26506" lon="4.27249">
        <ele>873.1</ele>
        <time>2015-12-05T14:10:55Z</time>
      </trkpt>
      <trkpt lat="45.26489" lon="4.27274">
        <ele>873.41</ele>
        <time>2015-12-05T14:11:06Z</time>
      </trkpt>
      <trkpt lat="45.26476" lon="4.27296">
        <ele>874.19</ele>
        <time>2015-12-05T14:11:17Z</time>
      </trkpt>
      <trkpt lat="45.26463" lon="4.27321">
        <ele>873.97</ele>
        <time>2015-12-05T14:11:30Z</time>
      </trkpt>
      <trkpt lat="45.26451" lon="4.27328">
        <ele>875.15</ele>
        <time>2015-12-05T14:13:01Z</time>
      </trkpt>
      <trkpt lat="45.26442" lon="4.27337">
        <ele>875.24</ele>
        <time>2015-12-05T14:13:38Z</time>
      </trkpt>
      <trkpt lat="45.26432" lon="4.27362">
        <ele>875.35</ele>
        <time>2015-12-05T14:13:47Z</time>
      </trkpt>
      <trkpt lat="45.26418" lon="4.27384">
        <ele>875.16</ele>
        <time>2015-12-05T14:13:55Z</time>
      </trkpt>
      <trkpt lat="45.26405" lon="4.27408">
        <ele>874.41</ele>
        <time>2015-12-05T14:14:02Z</time>
      </trkpt>
      <trkpt lat="45.26393" lon="4.27432">
        <ele>874.14</ele>
        <time>2015-12-05T14:14:08Z</time>
      </trkpt>
      <trkpt lat="45.26377" lon="4.27455">
        <ele>874</ele>
        <time>2015-12-05T14:14:15Z</time>
      </trkpt>
      <trkpt lat="45.26359" lon="4.2748">
        <ele>873.67</ele>
        <time>2015-12-05T14:14:21Z</time>
      </trkpt>
      <trkpt lat="45.26342" lon="4.27496">
        <ele>873.31</ele>
        <time>2015-12-05T14:14:26Z</time>
      </trkpt>
      <trkpt lat="45.26326" lon="4.27514">
        <ele>873.25</ele>
        <time>2015-12-05T14:14:31Z</time>
      </trkpt>
      <trkpt lat="45.26309" lon="4.27534">
        <ele>872.87</ele>
        <time>2015-12-05T14:14:36Z</time>
      </trkpt>
      <trkpt lat="45.26294" lon="4.27554">
        <ele>872.09</ele>
        <time>2015-12-05T14:14:40Z</time>
      </trkpt>
      <trkpt lat="45.26283" lon="4.27575">
        <ele>871.46</ele>
        <time>2015-12-05T14:14:45Z</time>
      </trkpt>
      <trkpt lat="45.26271" lon="4.27596">
        <ele>870.98</ele>
        <time>2015-12-05T14:14:50Z</time>
      </trkpt>
      <trkpt lat="45.26261" lon="4.27624">
        <ele>869.64</ele>
        <time>2015-12-05T14:14:55Z</time>
      </trkpt>
      <trkpt lat="45.2626" lon="4.27655">
        <ele>868.07</ele>
        <time>2015-12-05T14:14:59Z</time>
      </trkpt>
      <trkpt lat="45.26257" lon="4.27684">
        <ele>866.14</ele>
        <time>2015-12-05T14:15:03Z</time>
      </trkpt>
      <trkpt lat="45.26251" lon="4.27709">
        <ele>864.58</ele>
        <time>2015-12-05T14:15:06Z</time>
      </trkpt>
      <trkpt lat="45.26246" lon="4.27736">
        <ele>862.86</ele>
        <time>2015-12-05T14:15:09Z</time>
      </trkpt>
      <trkpt lat="45.26239" lon="4.27765">
        <ele>860.46</ele>
        <time>2015-12-05T14:15:13Z</time>
      </trkpt>
      <trkpt lat="45.26229" lon="4.27794">
        <ele>858.97</ele>
        <time>2015-12-05T14:15:17Z</time>
      </trkpt>
      <trkpt lat="45.26217" lon="4.27817">
        <ele>857.85</ele>
        <time>2015-12-05T14:15:21Z</time>
      </trkpt>
      <trkpt lat="45.26204" lon="4.27844">
        <ele>857.58</ele>
        <time>2015-12-05T14:15:25Z</time>
      </trkpt>
      <trkpt lat="45.26189" lon="4.27872">
        <ele>857.25</ele>
        <time>2015-12-05T14:15:29Z</time>
      </trkpt>
      <trkpt lat="45.26177" lon="4.279">
        <ele>856.61</ele>
        <time>2015-12-05T14:15:33Z</time>
      </trkpt>
      <trkpt lat="45.26168" lon="4.27929">
        <ele>856.04</ele>
        <time>2015-12-05T14:15:37Z</time>
      </trkpt>
      <trkpt lat="45.26166" lon="4.27956">
        <ele>855.71</ele>
        <time>2015-12-05T14:15:41Z</time>
      </trkpt>
      <trkpt lat="45.2617" lon="4.27987">
        <ele>855.62</ele>
        <time>2015-12-05T14:15:45Z</time>
      </trkpt>
      <trkpt lat="45.26175" lon="4.28012">
        <ele>855.62</ele>
        <time>2015-12-05T14:15:48Z</time>
      </trkpt>
      <trkpt lat="45.26182" lon="4.28037">
        <ele>855.68</ele>
        <time>2015-12-05T14:15:51Z</time>
      </trkpt>
      <trkpt lat="45.2619" lon="4.28067">
        <ele>855.75</ele>
        <time>2015-12-05T14:15:55Z</time>
      </trkpt>
      <trkpt lat="45.26192" lon="4.28096">
        <ele>855.51</ele>
        <time>2015-12-05T14:15:59Z</time>
      </trkpt>
      <trkpt lat="45.26193" lon="4.28123">
        <ele>855.45</ele>
        <time>2015-12-05T14:16:03Z</time>
      </trkpt>
      <trkpt lat="45.26195" lon="4.28152">
        <ele>856.01</ele>
        <time>2015-12-05T14:16:08Z</time>
      </trkpt>
      <trkpt lat="45.26193" lon="4.28181">
        <ele>857.01</ele>
        <time>2015-12-05T14:16:14Z</time>
      </trkpt>
      <trkpt lat="45.26194" lon="4.28212">
        <ele>857.97</ele>
        <time>2015-12-05T14:16:21Z</time>
      </trkpt>
      <trkpt lat="45.26194" lon="4.28241">
        <ele>858.63</ele>
        <time>2015-12-05T14:16:28Z</time>
      </trkpt>
      <trkpt lat="45.26193" lon="4.28269">
        <ele>860.2</ele>
        <time>2015-12-05T14:16:38Z</time>
      </trkpt>
      <trkpt lat="45.26192" lon="4.283">
        <ele>862.65</ele>
        <time>2015-12-05T14:16:50Z</time>
      </trkpt>
      <trkpt lat="45.26189" lon="4.28328">
        <ele>865.78</ele>
        <time>2015-12-05T14:17:03Z</time>
      </trkpt>
      <trkpt lat="45.2618" lon="4.28353">
        <ele>868.52</ele>
        <time>2015-12-05T14:17:17Z</time>
      </trkpt>
      <trkpt lat="45.26178" lon="4.28379">
        <ele>869.98</ele>
        <time>2015-12-05T14:17:28Z</time>
      </trkpt>
      <trkpt lat="45.2618" lon="4.28405">
        <ele>871.2</ele>
        <time>2015-12-05T14:17:38Z</time>
      </trkpt>
      <trkpt lat="45.26186" lon="4.2843">
        <ele>872.36</ele>
        <time>2015-12-05T14:17:48Z</time>
      </trkpt>
      <trkpt lat="45.26197" lon="4.28455">
        <ele>874.05</ele>
        <time>2015-12-05T14:18:02Z</time>
      </trkpt>
      <trkpt lat="45.26197" lon="4.28482">
        <ele>875.9</ele>
        <time>2015-12-05T14:18:15Z</time>
      </trkpt>
      <trkpt lat="45.26193" lon="4.28511">
        <ele>876.98</ele>
        <time>2015-12-05T14:18:25Z</time>
      </trkpt>
      <trkpt lat="45.26194" lon="4.28539">
        <ele>876.49</ele>
        <time>2015-12-05T14:18:31Z</time>
      </trkpt>
      <trkpt lat="45.26199" lon="4.28566">
        <ele>876.4</ele>
        <time>2015-12-05T14:18:36Z</time>
      </trkpt>
      <trkpt lat="45.26207" lon="4.28593">
        <ele>876.55</ele>
        <time>2015-12-05T14:18:41Z</time>
      </trkpt>
      <trkpt lat="45.26212" lon="4.2862">
        <ele>876.58</ele>
        <time>2015-12-05T14:18:46Z</time>
      </trkpt>
      <trkpt lat="45.26216" lon="4.28651">
        <ele>876.9</ele>
        <time>2015-12-05T14:18:52Z</time>
      </trkpt>
      <trkpt lat="45.26221" lon="4.28677">
        <ele>877.28</ele>
        <time>2015-12-05T14:18:57Z</time>
      </trkpt>
      <trkpt lat="45.26226" lon="4.28702">
        <ele>877.69</ele>
        <time>2015-12-05T14:19:03Z</time>
      </trkpt>
      <trkpt lat="45.26234" lon="4.28728">
        <ele>878.77</ele>
        <time>2015-12-05T14:19:11Z</time>
      </trkpt>
      <trkpt lat="45.26246" lon="4.28749">
        <ele>879.25</ele>
        <time>2015-12-05T14:19:18Z</time>
      </trkpt>
      <trkpt lat="45.2626" lon="4.28768">
        <ele>879.89</ele>
        <time>2015-12-05T14:19:25Z</time>
      </trkpt>
      <trkpt lat="45.26271" lon="4.28788">
        <ele>880.75</ele>
        <time>2015-12-05T14:19:33Z</time>
      </trkpt>
      <trkpt lat="45.26282" lon="4.28812">
        <ele>881.17</ele>
        <time>2015-12-05T14:19:41Z</time>
      </trkpt>
      <trkpt lat="45.26291" lon="4.28838">
        <ele>882.06</ele>
        <time>2015-12-05T14:19:48Z</time>
      </trkpt>
      <trkpt lat="45.26298" lon="4.28865">
        <ele>882.65</ele>
        <time>2015-12-05T14:19:57Z</time>
      </trkpt>
      <trkpt lat="45.26298" lon="4.28891">
        <ele>882.96</ele>
        <time>2015-12-05T14:20:07Z</time>
      </trkpt>
      <trkpt lat="45.26301" lon="4.28918">
        <ele>883.78</ele>
        <time>2015-12-05T14:20:16Z</time>
      </trkpt>
      <trkpt lat="45.26302" lon="4.28946">
        <ele>884.86</ele>
        <time>2015-12-05T14:20:25Z</time>
      </trkpt>
      <trkpt lat="45.26304" lon="4.28973">
        <ele>885.75</ele>
        <time>2015-12-05T14:20:34Z</time>
      </trkpt>
      <trkpt lat="45.26303" lon="4.29">
        <ele>886.58</ele>
        <time>2015-12-05T14:20:43Z</time>
      </trkpt>
      <trkpt lat="45.26303" lon="4.29025">
        <ele>887.65</ele>
        <time>2015-12-05T14:20:52Z</time>
      </trkpt>
      <trkpt lat="45.26303" lon="4.29052">
        <ele>888.17</ele>
        <time>2015-12-05T14:21:00Z</time>
      </trkpt>
      <trkpt lat="45.26302" lon="4.29083">
        <ele>887.7</ele>
        <time>2015-12-05T14:21:06Z</time>
      </trkpt>
      <trkpt lat="45.26299" lon="4.29113">
        <ele>886.47</ele>
        <time>2015-12-05T14:21:11Z</time>
      </trkpt>
      <trkpt lat="45.26297" lon="4.29141">
        <ele>885.35</ele>
        <time>2015-12-05T14:21:15Z</time>
      </trkpt>
      <trkpt lat="45.26297" lon="4.29173">
        <ele>883.41</ele>
        <time>2015-12-05T14:21:19Z</time>
      </trkpt>
      <trkpt lat="45.26301" lon="4.29203">
        <ele>882.01</ele>
        <time>2015-12-05T14:21:23Z</time>
      </trkpt>
      <trkpt lat="45.26302" lon="4.29236">
        <ele>879.93</ele>
        <time>2015-12-05T14:21:27Z</time>
      </trkpt>
      <trkpt lat="45.26302" lon="4.29269">
        <ele>878.55</ele>
        <time>2015-12-05T14:21:31Z</time>
      </trkpt>
      <trkpt lat="45.26303" lon="4.29295">
        <ele>877.63</ele>
        <time>2015-12-05T14:21:34Z</time>
      </trkpt>
      <trkpt lat="45.26303" lon="4.29321">
        <ele>876.4</ele>
        <time>2015-12-05T14:21:37Z</time>
      </trkpt>
      <trkpt lat="45.26294" lon="4.29347">
        <ele>874.79</ele>
        <time>2015-12-05T14:21:40Z</time>
      </trkpt>
      <trkpt lat="45.2628" lon="4.29371">
        <ele>871.95</ele>
        <time>2015-12-05T14:21:43Z</time>
      </trkpt>
      <trkpt lat="45.26265" lon="4.29392">
        <ele>870.5</ele>
        <time>2015-12-05T14:21:46Z</time>
      </trkpt>
      <trkpt lat="45.26252" lon="4.29411">
        <ele>869.85</ele>
        <time>2015-12-05T14:21:49Z</time>
      </trkpt>
      <trkpt lat="45.2624" lon="4.29431">
        <ele>869.35</ele>
        <time>2015-12-05T14:21:53Z</time>
      </trkpt>
      <trkpt lat="45.26228" lon="4.29449">
        <ele>869.22</ele>
        <time>2015-12-05T14:21:58Z</time>
      </trkpt>
      <trkpt lat="45.26216" lon="4.29469">
        <ele>869.16</ele>
        <time>2015-12-05T14:22:05Z</time>
      </trkpt>
      <trkpt lat="45.26205" lon="4.2949">
        <ele>869.34</ele>
        <time>2015-12-05T14:22:10Z</time>
      </trkpt>
      <trkpt lat="45.26193" lon="4.29515">
        <ele>869.36</ele>
        <time>2015-12-05T14:22:15Z</time>
      </trkpt>
      <trkpt lat="45.26181" lon="4.2954">
        <ele>869.08</ele>
        <time>2015-12-05T14:22:20Z</time>
      </trkpt>
      <trkpt lat="45.2617" lon="4.29563">
        <ele>869.69</ele>
        <time>2015-12-05T14:22:26Z</time>
      </trkpt>
      <trkpt lat="45.2616" lon="4.29588">
        <ele>871.32</ele>
        <time>2015-12-05T14:22:33Z</time>
      </trkpt>
      <trkpt lat="45.26149" lon="4.29611">
        <ele>872.2</ele>
        <time>2015-12-05T14:22:40Z</time>
      </trkpt>
      <trkpt lat="45.26136" lon="4.29631">
        <ele>872.44</ele>
        <time>2015-12-05T14:22:46Z</time>
      </trkpt>
      <trkpt lat="45.26122" lon="4.29652">
        <ele>872.01</ele>
        <time>2015-12-05T14:22:51Z</time>
      </trkpt>
      <trkpt lat="45.26109" lon="4.29673">
        <ele>870.93</ele>
        <time>2015-12-05T14:22:56Z</time>
      </trkpt>
      <trkpt lat="45.26095" lon="4.29694">
        <ele>870.83</ele>
        <time>2015-12-05T14:23:02Z</time>
      </trkpt>
      <trkpt lat="45.2608" lon="4.29715">
        <ele>871.24</ele>
        <time>2015-12-05T14:23:10Z</time>
      </trkpt>
      <trkpt lat="45.26064" lon="4.29738">
        <ele>871.02</ele>
        <time>2015-12-05T14:23:18Z</time>
      </trkpt>
      <trkpt lat="45.2605" lon="4.29757">
        <ele>870.74</ele>
        <time>2015-12-05T14:23:24Z</time>
      </trkpt>
      <trkpt lat="45.26036" lon="4.29774">
        <ele>871.27</ele>
        <time>2015-12-05T14:23:30Z</time>
      </trkpt>
      <trkpt lat="45.2602" lon="4.29795">
        <ele>871.12</ele>
        <time>2015-12-05T14:23:37Z</time>
      </trkpt>
      <trkpt lat="45.26004" lon="4.29813">
        <ele>871.35</ele>
        <time>2015-12-05T14:23:43Z</time>
      </trkpt>
      <trkpt lat="45.25986" lon="4.2983">
        <ele>871.22</ele>
        <time>2015-12-05T14:23:49Z</time>
      </trkpt>
      <trkpt lat="45.2597" lon="4.29848">
        <ele>870.95</ele>
        <time>2015-12-05T14:23:54Z</time>
      </trkpt>
      <trkpt lat="45.25954" lon="4.29868">
        <ele>870.82</ele>
        <time>2015-12-05T14:23:59Z</time>
      </trkpt>
      <trkpt lat="45.25939" lon="4.29885">
        <ele>870.83</ele>
        <time>2015-12-05T14:24:03Z</time>
      </trkpt>
      <trkpt lat="45.25924" lon="4.29904">
        <ele>870.94</ele>
        <time>2015-12-05T14:24:07Z</time>
      </trkpt>
      <trkpt lat="45.2591" lon="4.29921">
        <ele>871</ele>
        <time>2015-12-05T14:24:11Z</time>
      </trkpt>
      <trkpt lat="45.25896" lon="4.2994">
        <ele>870.6</ele>
        <time>2015-12-05T14:24:15Z</time>
      </trkpt>
      <trkpt lat="45.25883" lon="4.29959">
        <ele>870.01</ele>
        <time>2015-12-05T14:24:19Z</time>
      </trkpt>
      <trkpt lat="45.25868" lon="4.29979">
        <ele>869.82</ele>
        <time>2015-12-05T14:24:24Z</time>
      </trkpt>
      <trkpt lat="45.25855" lon="4.29997">
        <ele>869.63</ele>
        <time>2015-12-05T14:24:29Z</time>
      </trkpt>
      <trkpt lat="45.25842" lon="4.30018">
        <ele>869.42</ele>
        <time>2015-12-05T14:24:35Z</time>
      </trkpt>
      <trkpt lat="45.25822" lon="4.30031">
        <ele>869.5</ele>
        <time>2015-12-05T14:24:41Z</time>
      </trkpt>
      <trkpt lat="45.25802" lon="4.30035">
        <ele>869.68</ele>
        <time>2015-12-05T14:24:47Z</time>
      </trkpt>
      <trkpt lat="45.25786" lon="4.3004">
        <ele>870.75</ele>
        <time>2015-12-05T14:25:23Z</time>
      </trkpt>
      <trkpt lat="45.25768" lon="4.30038">
        <ele>870.73</ele>
        <time>2015-12-05T14:25:52Z</time>
      </trkpt>
      <trkpt lat="45.25747" lon="4.30038">
        <ele>871.02</ele>
        <time>2015-12-05T14:25:58Z</time>
      </trkpt>
      <trkpt lat="45.25724" lon="4.30037">
        <ele>871.25</ele>
        <time>2015-12-05T14:26:03Z</time>
      </trkpt>
      <trkpt lat="45.25707" lon="4.30037">
        <ele>871.34</ele>
        <time>2015-12-05T14:26:07Z</time>
      </trkpt>
      <trkpt lat="45.25684" lon="4.30039">
        <ele>871.68</ele>
        <time>2015-12-05T14:26:12Z</time>
      </trkpt>
      <trkpt lat="45.25666" lon="4.30035">
        <ele>872.09</ele>
        <time>2015-12-05T14:26:16Z</time>
      </trkpt>
      <trkpt lat="45.25652" lon="4.30018">
        <ele>872.23</ele>
        <time>2015-12-05T14:26:20Z</time>
      </trkpt>
      <trkpt lat="45.25638" lon="4.30001">
        <ele>872.7</ele>
        <time>2015-12-05T14:26:25Z</time>
      </trkpt>
      <trkpt lat="45.25622" lon="4.29988">
        <ele>873.85</ele>
        <time>2015-12-05T14:26:34Z</time>
      </trkpt>
      <trkpt lat="45.25601" lon="4.29964">
        <ele>877.57</ele>
        <time>2015-12-05T14:26:46Z</time>
      </trkpt>
      <trkpt lat="45.25575" lon="4.2995">
        <ele>878.42</ele>
        <time>2015-12-05T14:26:55Z</time>
      </trkpt>
      <trkpt lat="45.2555" lon="4.29929">
        <ele>877.75</ele>
        <time>2015-12-05T14:27:02Z</time>
      </trkpt>
      <trkpt lat="45.25525" lon="4.2991">
        <ele>877.3</ele>
        <time>2015-12-05T14:27:07Z</time>
      </trkpt>
      <trkpt lat="45.25506" lon="4.29896">
        <ele>877.28</ele>
        <time>2015-12-05T14:27:11Z</time>
      </trkpt>
      <trkpt lat="45.25485" lon="4.29884">
        <ele>877.35</ele>
        <time>2015-12-05T14:27:16Z</time>
      </trkpt>
      <trkpt lat="45.2546" lon="4.2987">
        <ele>877.05</ele>
        <time>2015-12-05T14:27:21Z</time>
      </trkpt>
      <trkpt lat="45.25437" lon="4.29856">
        <ele>876.57</ele>
        <time>2015-12-05T14:27:25Z</time>
      </trkpt>
      <trkpt lat="45.25415" lon="4.29838">
        <ele>875.66</ele>
        <time>2015-12-05T14:27:30Z</time>
      </trkpt>
      <trkpt lat="45.25385" lon="4.29831">
        <ele>875.9</ele>
        <time>2015-12-05T14:27:37Z</time>
      </trkpt>
      <trkpt lat="45.25357" lon="4.29823">
        <ele>875.97</ele>
        <time>2015-12-05T14:27:43Z</time>
      </trkpt>
      <trkpt lat="45.25331" lon="4.2982">
        <ele>875.89</ele>
        <time>2015-12-05T14:27:48Z</time>
      </trkpt>
      <trkpt lat="45.25299" lon="4.2982">
        <ele>876.17</ele>
        <time>2015-12-05T14:27:54Z</time>
      </trkpt>
      <trkpt lat="45.25278" lon="4.29814">
        <ele>876.69</ele>
        <time>2015-12-05T14:28:00Z</time>
      </trkpt>
      <trkpt lat="45.25254" lon="4.29813">
        <ele>877.93</ele>
        <time>2015-12-05T14:28:10Z</time>
      </trkpt>
      <trkpt lat="45.25226" lon="4.29806">
        <ele>879.71</ele>
        <time>2015-12-05T14:28:25Z</time>
      </trkpt>
      <trkpt lat="45.25206" lon="4.29797">
        <ele>879.1</ele>
        <time>2015-12-05T14:28:32Z</time>
      </trkpt>
      <trkpt lat="45.25179" lon="4.29794">
        <ele>877.45</ele>
        <time>2015-12-05T14:28:37Z</time>
      </trkpt>
      <trkpt lat="45.25157" lon="4.29786">
        <ele>874.61</ele>
        <time>2015-12-05T14:28:42Z</time>
      </trkpt>
      <trkpt lat="45.25139" lon="4.2977">
        <ele>872.54</ele>
        <time>2015-12-05T14:28:48Z</time>
      </trkpt>
      <trkpt lat="45.25117" lon="4.29761">
        <ele>871.18</ele>
        <time>2015-12-05T14:28:53Z</time>
      </trkpt>
      <trkpt lat="45.25091" lon="4.29756">
        <ele>870.49</ele>
        <time>2015-12-05T14:28:58Z</time>
      </trkpt>
      <trkpt lat="45.25063" lon="4.29746">
        <ele>870</ele>
        <time>2015-12-05T14:29:03Z</time>
      </trkpt>
      <trkpt lat="45.25037" lon="4.29727">
        <ele>869.23</ele>
        <time>2015-12-05T14:29:09Z</time>
      </trkpt>
      <trkpt lat="45.25014" lon="4.29712">
        <ele>868.93</ele>
        <time>2015-12-05T14:29:13Z</time>
      </trkpt>
      <trkpt lat="45.24989" lon="4.29695">
        <ele>868.37</ele>
        <time>2015-12-05T14:29:17Z</time>
      </trkpt>
      <trkpt lat="45.24971" lon="4.29681">
        <ele>867.64</ele>
        <time>2015-12-05T14:29:21Z</time>
      </trkpt>
      <trkpt lat="45.24949" lon="4.29665">
        <ele>866.41</ele>
        <time>2015-12-05T14:29:27Z</time>
      </trkpt>
      <trkpt lat="45.24915" lon="4.29654">
        <ele>866.13</ele>
        <time>2015-12-05T14:29:33Z</time>
      </trkpt>
      <trkpt lat="45.2489" lon="4.29636">
        <ele>866.48</ele>
        <time>2015-12-05T14:29:39Z</time>
      </trkpt>
      <trkpt lat="45.24867" lon="4.29616">
        <ele>866.89</ele>
        <time>2015-12-05T14:29:47Z</time>
      </trkpt>
      <trkpt lat="45.24846" lon="4.29604">
        <ele>868.25</ele>
        <time>2015-12-05T14:29:56Z</time>
      </trkpt>
      <trkpt lat="45.24835" lon="4.29577">
        <ele>868.76</ele>
        <time>2015-12-05T14:30:04Z</time>
      </trkpt>
      <trkpt lat="45.24825" lon="4.2955">
        <ele>868.42</ele>
        <time>2015-12-05T14:30:10Z</time>
      </trkpt>
      <trkpt lat="45.24814" lon="4.29525">
        <ele>868.93</ele>
        <time>2015-12-05T14:30:16Z</time>
      </trkpt>
      <trkpt lat="45.24803" lon="4.29503">
        <ele>869.24</ele>
        <time>2015-12-05T14:30:21Z</time>
      </trkpt>
      <trkpt lat="45.24789" lon="4.29484">
        <ele>868.95</ele>
        <time>2015-12-05T14:30:27Z</time>
      </trkpt>
      <trkpt lat="45.24775" lon="4.29464">
        <ele>868.78</ele>
        <time>2015-12-05T14:30:36Z</time>
      </trkpt>
      <trkpt lat="45.2476" lon="4.2945">
        <ele>867.26</ele>
        <time>2015-12-05T14:30:44Z</time>
      </trkpt>
      <trkpt lat="45.24743" lon="4.29437">
        <ele>866.22</ele>
        <time>2015-12-05T14:30:51Z</time>
      </trkpt>
      <trkpt lat="45.24728" lon="4.2942">
        <ele>865.05</ele>
        <time>2015-12-05T14:30:57Z</time>
      </trkpt>
      <trkpt lat="45.24714" lon="4.29401">
        <ele>862.64</ele>
        <time>2015-12-05T14:33:22Z</time>
      </trkpt>
      <trkpt lat="45.24696" lon="4.29383">
        <ele>861.39</ele>
        <time>2015-12-05T14:33:27Z</time>
      </trkpt>
      <trkpt lat="45.24679" lon="4.29363">
        <ele>859.71</ele>
        <time>2015-12-05T14:33:33Z</time>
      </trkpt>
      <trkpt lat="45.2467" lon="4.29337">
        <ele>858.48</ele>
        <time>2015-12-05T14:33:37Z</time>
      </trkpt>
      <trkpt lat="45.24662" lon="4.29311">
        <ele>857.47</ele>
        <time>2015-12-05T14:33:40Z</time>
      </trkpt>
      <trkpt lat="45.24651" lon="4.29281">
        <ele>856.1</ele>
        <time>2015-12-05T14:33:43Z</time>
      </trkpt>
      <trkpt lat="45.2464" lon="4.29249">
        <ele>853.94</ele>
        <time>2015-12-05T14:33:46Z</time>
      </trkpt>
      <trkpt lat="45.24629" lon="4.29216">
        <ele>850.85</ele>
        <time>2015-12-05T14:33:49Z</time>
      </trkpt>
      <trkpt lat="45.24618" lon="4.29183">
        <ele>848.85</ele>
        <time>2015-12-05T14:33:52Z</time>
      </trkpt>
      <trkpt lat="45.24608" lon="4.29151">
        <ele>846.79</ele>
        <time>2015-12-05T14:33:55Z</time>
      </trkpt>
      <trkpt lat="45.24602" lon="4.29117">
        <ele>844.47</ele>
        <time>2015-12-05T14:33:58Z</time>
      </trkpt>
      <trkpt lat="45.24599" lon="4.29077">
        <ele>842.28</ele>
        <time>2015-12-05T14:34:01Z</time>
      </trkpt>
      <trkpt lat="45.24594" lon="4.2905">
        <ele>840.68</ele>
        <time>2015-12-05T14:34:03Z</time>
      </trkpt>
      <trkpt lat="45.24583" lon="4.29026">
        <ele>838.87</ele>
        <time>2015-12-05T14:34:05Z</time>
      </trkpt>
      <trkpt lat="45.2457" lon="4.29003">
        <ele>837.12</ele>
        <time>2015-12-05T14:34:07Z</time>
      </trkpt>
      <trkpt lat="45.24557" lon="4.28983">
        <ele>835.41</ele>
        <time>2015-12-05T14:34:09Z</time>
      </trkpt>
      <trkpt lat="45.2454" lon="4.28955">
        <ele>832.96</ele>
        <time>2015-12-05T14:34:12Z</time>
      </trkpt>
      <trkpt lat="45.24523" lon="4.28933">
        <ele>832.02</ele>
        <time>2015-12-05T14:34:15Z</time>
      </trkpt>
      <trkpt lat="45.2451" lon="4.28916">
        <ele>831.48</ele>
        <time>2015-12-05T14:34:18Z</time>
      </trkpt>
      <trkpt lat="45.24516" lon="4.28887">
        <ele>831.45</ele>
        <time>2015-12-05T14:34:22Z</time>
      </trkpt>
      <trkpt lat="45.24525" lon="4.28861">
        <ele>831.93</ele>
        <time>2015-12-05T14:34:25Z</time>
      </trkpt>
      <trkpt lat="45.24533" lon="4.28832">
        <ele>831.69</ele>
        <time>2015-12-05T14:34:28Z</time>
      </trkpt>
      <trkpt lat="45.24541" lon="4.28797">
        <ele>830.7</ele>
        <time>2015-12-05T14:34:31Z</time>
      </trkpt>
      <trkpt lat="45.24546" lon="4.28772">
        <ele>829.67</ele>
        <time>2015-12-05T14:34:33Z</time>
      </trkpt>
      <trkpt lat="45.24549" lon="4.28743">
        <ele>828.19</ele>
        <time>2015-12-05T14:34:35Z</time>
      </trkpt>
      <trkpt lat="45.2455" lon="4.28711">
        <ele>825.39</ele>
        <time>2015-12-05T14:34:37Z</time>
      </trkpt>
      <trkpt lat="45.24551" lon="4.28679">
        <ele>823.28</ele>
        <time>2015-12-05T14:34:39Z</time>
      </trkpt>
      <trkpt lat="45.24553" lon="4.28646">
        <ele>821.15</ele>
        <time>2015-12-05T14:34:41Z</time>
      </trkpt>
      <trkpt lat="45.24556" lon="4.28613">
        <ele>818.99</ele>
        <time>2015-12-05T14:34:43Z</time>
      </trkpt>
      <trkpt lat="45.24558" lon="4.28584">
        <ele>817.31</ele>
        <time>2015-12-05T14:34:45Z</time>
      </trkpt>
      <trkpt lat="45.24557" lon="4.28557">
        <ele>816.19</ele>
        <time>2015-12-05T14:34:47Z</time>
      </trkpt>
      <trkpt lat="45.24561" lon="4.28533">
        <ele>815.34</ele>
        <time>2015-12-05T14:34:49Z</time>
      </trkpt>
      <trkpt lat="45.24576" lon="4.28503">
        <ele>814.85</ele>
        <time>2015-12-05T14:34:52Z</time>
      </trkpt>
      <trkpt lat="45.24591" lon="4.28478">
        <ele>814.77</ele>
        <time>2015-12-05T14:34:55Z</time>
      </trkpt>
      <trkpt lat="45.24602" lon="4.28447">
        <ele>815.06</ele>
        <time>2015-12-05T14:34:58Z</time>
      </trkpt>
      <trkpt lat="45.24608" lon="4.28422">
        <ele>815.01</ele>
        <time>2015-12-05T14:35:00Z</time>
      </trkpt>
      <trkpt lat="45.24614" lon="4.28395">
        <ele>813.38</ele>
        <time>2015-12-05T14:35:02Z</time>
      </trkpt>
      <trkpt lat="45.24623" lon="4.28369">
        <ele>811.91</ele>
        <time>2015-12-05T14:35:04Z</time>
      </trkpt>
      <trkpt lat="45.24637" lon="4.28346">
        <ele>810.33</ele>
        <time>2015-12-05T14:35:06Z</time>
      </trkpt>
      <trkpt lat="45.24652" lon="4.28329">
        <ele>808.8</ele>
        <time>2015-12-05T14:35:08Z</time>
      </trkpt>
      <trkpt lat="45.2466" lon="4.283">
        <ele>806.99</ele>
        <time>2015-12-05T14:35:11Z</time>
      </trkpt>
      <trkpt lat="45.24654" lon="4.28273">
        <ele>805.66</ele>
        <time>2015-12-05T14:35:13Z</time>
      </trkpt>
      <trkpt lat="45.2465" lon="4.28241">
        <ele>803.25</ele>
        <time>2015-12-05T14:35:15Z</time>
      </trkpt>
      <trkpt lat="45.24649" lon="4.28209">
        <ele>800.23</ele>
        <time>2015-12-05T14:35:17Z</time>
      </trkpt>
      <trkpt lat="45.24647" lon="4.28178">
        <ele>797.75</ele>
        <time>2015-12-05T14:35:19Z</time>
      </trkpt>
      <trkpt lat="45.24648" lon="4.28148">
        <ele>796.02</ele>
        <time>2015-12-05T14:35:21Z</time>
      </trkpt>
      <trkpt lat="45.24654" lon="4.2812">
        <ele>794.5</ele>
        <time>2015-12-05T14:35:23Z</time>
      </trkpt>
      <trkpt lat="45.24664" lon="4.28097">
        <ele>793.33</ele>
        <time>2015-12-05T14:35:25Z</time>
      </trkpt>
      <trkpt lat="45.24681" lon="4.28073">
        <ele>792.81</ele>
        <time>2015-12-05T14:35:28Z</time>
      </trkpt>
      <trkpt lat="45.2469" lon="4.28048">
        <ele>794.34</ele>
        <time>2015-12-05T14:35:31Z</time>
      </trkpt>
      <trkpt lat="45.24692" lon="4.28021">
        <ele>796.97</ele>
        <time>2015-12-05T14:35:35Z</time>
      </trkpt>
      <trkpt lat="45.24686" lon="4.27997">
        <ele>801.06</ele>
        <time>2015-12-05T14:35:42Z</time>
      </trkpt>
      <trkpt lat="45.24675" lon="4.27975">
        <ele>804.51</ele>
        <time>2015-12-05T14:35:51Z</time>
      </trkpt>
      <trkpt lat="45.24672" lon="4.2795">
        <ele>807.32</ele>
        <time>2015-12-05T14:36:00Z</time>
      </trkpt>
      <trkpt lat="45.24677" lon="4.27922">
        <ele>808.67</ele>
        <time>2015-12-05T14:36:08Z</time>
      </trkpt>
      <trkpt lat="45.24679" lon="4.27892">
        <ele>808.76</ele>
        <time>2015-12-05T14:36:13Z</time>
      </trkpt>
      <trkpt lat="45.24679" lon="4.27863">
        <ele>808.76</ele>
        <time>2015-12-05T14:36:18Z</time>
      </trkpt>
      <trkpt lat="45.24677" lon="4.27836">
        <ele>809.12</ele>
        <time>2015-12-05T14:36:23Z</time>
      </trkpt>
      <trkpt lat="45.24674" lon="4.2781">
        <ele>809.69</ele>
        <time>2015-12-05T14:36:28Z</time>
      </trkpt>
      <trkpt lat="45.24669" lon="4.27783">
        <ele>810.57</ele>
        <time>2015-12-05T14:36:35Z</time>
      </trkpt>
      <trkpt lat="45.24663" lon="4.27759">
        <ele>812.87</ele>
        <time>2015-12-05T14:36:44Z</time>
      </trkpt>
      <trkpt lat="45.2466" lon="4.27731">
        <ele>814.71</ele>
        <time>2015-12-05T14:36:52Z</time>
      </trkpt>
      <trkpt lat="45.24659" lon="4.27704">
        <ele>815.93</ele>
        <time>2015-12-05T14:37:00Z</time>
      </trkpt>
      <trkpt lat="45.24656" lon="4.27673">
        <ele>816.85</ele>
        <time>2015-12-05T14:37:08Z</time>
      </trkpt>
      <trkpt lat="45.24653" lon="4.27646">
        <ele>817.7</ele>
        <time>2015-12-05T14:37:16Z</time>
      </trkpt>
      <trkpt lat="45.24654" lon="4.27618">
        <ele>820.13</ele>
        <time>2015-12-05T14:37:26Z</time>
      </trkpt>
      <trkpt lat="45.24654" lon="4.27595">
        <ele>822.37</ele>
        <time>2015-12-05T14:37:52Z</time>
      </trkpt>
      <trkpt lat="45.24659" lon="4.27591">
        <ele>822.81</ele>
        <time>2015-12-05T14:41:30Z</time>
      </trkpt>
      <trkpt lat="45.24672" lon="4.2757">
        <ele>822.45</ele>
        <time>2015-12-05T14:43:53Z</time>
      </trkpt>
      <trkpt lat="45.24685" lon="4.27546">
        <ele>822.92</ele>
        <time>2015-12-05T14:43:59Z</time>
      </trkpt>
      <trkpt lat="45.24701" lon="4.27538">
        <ele>823.43</ele>
        <time>2015-12-05T14:44:06Z</time>
      </trkpt>
      <trkpt lat="45.24722" lon="4.27535">
        <ele>823.17</ele>
        <time>2015-12-05T14:44:11Z</time>
      </trkpt>
      <trkpt lat="45.24745" lon="4.27527">
        <ele>821.96</ele>
        <time>2015-12-05T14:44:15Z</time>
      </trkpt>
      <trkpt lat="45.24769" lon="4.27517">
        <ele>820.49</ele>
        <time>2015-12-05T14:44:18Z</time>
      </trkpt>
      <trkpt lat="45.24793" lon="4.27504">
        <ele>818.28</ele>
        <time>2015-12-05T14:44:21Z</time>
      </trkpt>
      <trkpt lat="45.24815" lon="4.27484">
        <ele>816.35</ele>
        <time>2015-12-05T14:44:24Z</time>
      </trkpt>
      <trkpt lat="45.24832" lon="4.27455">
        <ele>814.08</ele>
        <time>2015-12-05T14:44:27Z</time>
      </trkpt>
      <trkpt lat="45.24842" lon="4.27431">
        <ele>812.72</ele>
        <time>2015-12-05T14:44:29Z</time>
      </trkpt>
      <trkpt lat="45.24852" lon="4.27407">
        <ele>810.43</ele>
        <time>2015-12-05T14:44:31Z</time>
      </trkpt>
      <trkpt lat="45.24861" lon="4.27382">
        <ele>808.88</ele>
        <time>2015-12-05T14:44:33Z</time>
      </trkpt>
      <trkpt lat="45.24876" lon="4.27353">
        <ele>806.7</ele>
        <time>2015-12-05T14:44:36Z</time>
      </trkpt>
      <trkpt lat="45.24891" lon="4.27332">
        <ele>804.23</ele>
        <time>2015-12-05T14:44:40Z</time>
      </trkpt>
      <trkpt lat="45.2491" lon="4.27317">
        <ele>802.47</ele>
        <time>2015-12-05T14:44:45Z</time>
      </trkpt>
      <trkpt lat="45.24928" lon="4.27304">
        <ele>801.44</ele>
        <time>2015-12-05T14:44:48Z</time>
      </trkpt>
      <trkpt lat="45.24943" lon="4.27284">
        <ele>800.06</ele>
        <time>2015-12-05T14:44:51Z</time>
      </trkpt>
      <trkpt lat="45.24947" lon="4.27259">
        <ele>799.24</ele>
        <time>2015-12-05T14:44:54Z</time>
      </trkpt>
      <trkpt lat="45.24943" lon="4.27225">
        <ele>799.1</ele>
        <time>2015-12-05T14:44:58Z</time>
      </trkpt>
      <trkpt lat="45.2494" lon="4.27194">
        <ele>799.72</ele>
        <time>2015-12-05T14:45:02Z</time>
      </trkpt>
      <trkpt lat="45.24937" lon="4.27162">
        <ele>801.02</ele>
        <time>2015-12-05T14:45:07Z</time>
      </trkpt>
      <trkpt lat="45.2494" lon="4.27138">
        <ele>803.27</ele>
        <time>2015-12-05T14:45:14Z</time>
      </trkpt>
      <trkpt lat="45.24945" lon="4.27114">
        <ele>807.48</ele>
        <time>2015-12-05T14:45:25Z</time>
      </trkpt>
      <trkpt lat="45.24952" lon="4.27088">
        <ele>811.33</ele>
        <time>2015-12-05T14:45:40Z</time>
      </trkpt>
      <trkpt lat="45.24958" lon="4.27061">
        <ele>816.03</ele>
        <time>2015-12-05T14:45:58Z</time>
      </trkpt>
      <trkpt lat="45.24952" lon="4.27033">
        <ele>819.34</ele>
        <time>2015-12-05T14:46:14Z</time>
      </trkpt>
      <trkpt lat="45.24941" lon="4.27009">
        <ele>821.81</ele>
        <time>2015-12-05T14:46:27Z</time>
      </trkpt>
      <trkpt lat="45.24935" lon="4.26982">
        <ele>822.78</ele>
        <time>2015-12-05T14:46:36Z</time>
      </trkpt>
      <trkpt lat="45.24933" lon="4.26956">
        <ele>823.47</ele>
        <time>2015-12-05T14:46:44Z</time>
      </trkpt>
      <trkpt lat="45.2495" lon="4.26945">
        <ele>825.59</ele>
        <time>2015-12-05T14:46:55Z</time>
      </trkpt>
      <trkpt lat="45.24971" lon="4.26945">
        <ele>826.95</ele>
        <time>2015-12-05T14:47:03Z</time>
      </trkpt>
      <trkpt lat="45.24992" lon="4.26942">
        <ele>827.56</ele>
        <time>2015-12-05T14:47:10Z</time>
      </trkpt>
      <trkpt lat="45.25005" lon="4.2692">
        <ele>828.22</ele>
        <time>2015-12-05T14:47:16Z</time>
      </trkpt>
      <trkpt lat="45.25017" lon="4.26896">
        <ele>829.06</ele>
        <time>2015-12-05T14:47:23Z</time>
      </trkpt>
      <trkpt lat="45.25025" lon="4.26873">
        <ele>829.61</ele>
        <time>2015-12-05T14:47:28Z</time>
      </trkpt>
      <trkpt lat="45.25036" lon="4.26845">
        <ele>829.21</ele>
        <time>2015-12-05T14:47:32Z</time>
      </trkpt>
      <trkpt lat="45.25051" lon="4.26816">
        <ele>828.44</ele>
        <time>2015-12-05T14:47:36Z</time>
      </trkpt>
      <trkpt lat="45.25062" lon="4.26791">
        <ele>827.55</ele>
        <time>2015-12-05T14:47:39Z</time>
      </trkpt>
      <trkpt lat="45.25072" lon="4.26767">
        <ele>826.72</ele>
        <time>2015-12-05T14:47:42Z</time>
      </trkpt>
      <trkpt lat="45.25083" lon="4.26742">
        <ele>826.11</ele>
        <time>2015-12-05T14:47:45Z</time>
      </trkpt>
      <trkpt lat="45.25094" lon="4.26718">
        <ele>825.7</ele>
        <time>2015-12-05T14:47:48Z</time>
      </trkpt>
      <trkpt lat="45.25104" lon="4.26694">
        <ele>825.26</ele>
        <time>2015-12-05T14:47:51Z</time>
      </trkpt>
      <trkpt lat="45.25112" lon="4.26666">
        <ele>824.59</ele>
        <time>2015-12-05T14:47:54Z</time>
      </trkpt>
      <trkpt lat="45.2512" lon="4.26637">
        <ele>824.14</ele>
        <time>2015-12-05T14:47:57Z</time>
      </trkpt>
      <trkpt lat="45.25129" lon="4.26608">
        <ele>823.62</ele>
        <time>2015-12-05T14:48:00Z</time>
      </trkpt>
      <trkpt lat="45.25139" lon="4.26582">
        <ele>823.31</ele>
        <time>2015-12-05T14:48:03Z</time>
      </trkpt>
      <trkpt lat="45.25152" lon="4.26565">
        <ele>823.22</ele>
        <time>2015-12-05T14:48:06Z</time>
      </trkpt>
      <trkpt lat="45.25172" lon="4.26555">
        <ele>824.08</ele>
        <time>2015-12-05T14:48:10Z</time>
      </trkpt>
      <trkpt lat="45.25191" lon="4.26555">
        <ele>825.96</ele>
        <time>2015-12-05T14:48:14Z</time>
      </trkpt>
      <trkpt lat="45.25212" lon="4.26563">
        <ele>827.21</ele>
        <time>2015-12-05T14:48:19Z</time>
      </trkpt>
      <trkpt lat="45.25233" lon="4.2657">
        <ele>828.17</ele>
        <time>2015-12-05T14:48:24Z</time>
      </trkpt>
      <trkpt lat="45.25254" lon="4.26578">
        <ele>828.87</ele>
        <time>2015-12-05T14:48:29Z</time>
      </trkpt>
      <trkpt lat="45.25273" lon="4.26584">
        <ele>829.54</ele>
        <time>2015-12-05T14:48:34Z</time>
      </trkpt>
      <trkpt lat="45.25293" lon="4.2659">
        <ele>830.67</ele>
        <time>2015-12-05T14:48:39Z</time>
      </trkpt>
      <trkpt lat="45.2531" lon="4.26596">
        <ele>831.28</ele>
        <time>2015-12-05T14:48:44Z</time>
      </trkpt>
      <trkpt lat="45.2533" lon="4.26598">
        <ele>831.58</ele>
        <time>2015-12-05T14:48:51Z</time>
      </trkpt>
      <trkpt lat="45.2535" lon="4.26603">
        <ele>832.05</ele>
        <time>2015-12-05T14:48:59Z</time>
      </trkpt>
      <trkpt lat="45.25359" lon="4.26593">
        <ele>833.11</ele>
        <time>2015-12-05T14:49:33Z</time>
      </trkpt>
      <trkpt lat="45.25361" lon="4.26573">
        <ele>833.18</ele>
        <time>2015-12-05T14:50:10Z</time>
      </trkpt>
      <trkpt lat="45.25355" lon="4.26545">
        <ele>833.08</ele>
        <time>2015-12-05T14:50:14Z</time>
      </trkpt>
      <trkpt lat="45.25349" lon="4.26514">
        <ele>832.54</ele>
        <time>2015-12-05T14:50:18Z</time>
      </trkpt>
      <trkpt lat="45.25343" lon="4.26488">
        <ele>832.15</ele>
        <time>2015-12-05T14:50:21Z</time>
      </trkpt>
      <trkpt lat="45.2534" lon="4.26462">
        <ele>831.88</ele>
        <time>2015-12-05T14:50:24Z</time>
      </trkpt>
      <trkpt lat="45.25339" lon="4.26426">
        <ele>831.29</ele>
        <time>2015-12-05T14:50:28Z</time>
      </trkpt>
      <trkpt lat="45.2534" lon="4.26398">
        <ele>831.15</ele>
        <time>2015-12-05T14:50:31Z</time>
      </trkpt>
      <trkpt lat="45.25344" lon="4.26371">
        <ele>831.29</ele>
        <time>2015-12-05T14:50:34Z</time>
      </trkpt>
      <trkpt lat="45.25349" lon="4.26342">
        <ele>831.29</ele>
        <time>2015-12-05T14:50:37Z</time>
      </trkpt>
      <trkpt lat="45.25355" lon="4.26314">
        <ele>831.11</ele>
        <time>2015-12-05T14:50:40Z</time>
      </trkpt>
      <trkpt lat="45.25361" lon="4.26286">
        <ele>830.97</ele>
        <time>2015-12-05T14:50:43Z</time>
      </trkpt>
      <trkpt lat="45.25368" lon="4.26258">
        <ele>830.96</ele>
        <time>2015-12-05T14:50:46Z</time>
      </trkpt>
      <trkpt lat="45.25376" lon="4.2623">
        <ele>830.94</ele>
        <time>2015-12-05T14:50:49Z</time>
      </trkpt>
      <trkpt lat="45.25383" lon="4.26202">
        <ele>830.87</ele>
        <time>2015-12-05T14:50:52Z</time>
      </trkpt>
      <trkpt lat="45.25389" lon="4.26172">
        <ele>830.73</ele>
        <time>2015-12-05T14:50:55Z</time>
      </trkpt>
      <trkpt lat="45.25397" lon="4.26143">
        <ele>830.2</ele>
        <time>2015-12-05T14:50:58Z</time>
      </trkpt>
      <trkpt lat="45.25408" lon="4.26115">
        <ele>829.89</ele>
        <time>2015-12-05T14:51:01Z</time>
      </trkpt>
      <trkpt lat="45.25419" lon="4.26086">
        <ele>829.34</ele>
        <time>2015-12-05T14:51:04Z</time>
      </trkpt>
      <trkpt lat="45.2543" lon="4.26058">
        <ele>828.81</ele>
        <time>2015-12-05T14:51:07Z</time>
      </trkpt>
      <trkpt lat="45.25443" lon="4.26029">
        <ele>828.38</ele>
        <time>2015-12-05T14:51:10Z</time>
      </trkpt>
      <trkpt lat="45.25454" lon="4.25996">
        <ele>827.92</ele>
        <time>2015-12-05T14:51:13Z</time>
      </trkpt>
      <trkpt lat="45.2546" lon="4.25973">
        <ele>827.43</ele>
        <time>2015-12-05T14:51:15Z</time>
      </trkpt>
      <trkpt lat="45.25467" lon="4.25947">
        <ele>826.92</ele>
        <time>2015-12-05T14:51:17Z</time>
      </trkpt>
      <trkpt lat="45.25474" lon="4.25921">
        <ele>826.01</ele>
        <time>2015-12-05T14:51:19Z</time>
      </trkpt>
      <trkpt lat="45.2548" lon="4.25894">
        <ele>824.77</ele>
        <time>2015-12-05T14:51:21Z</time>
      </trkpt>
      <trkpt lat="45.25486" lon="4.25865">
        <ele>823.47</ele>
        <time>2015-12-05T14:51:23Z</time>
      </trkpt>
      <trkpt lat="45.25491" lon="4.25836">
        <ele>821.51</ele>
        <time>2015-12-05T14:51:25Z</time>
      </trkpt>
      <trkpt lat="45.25495" lon="4.25808">
        <ele>820.22</ele>
        <time>2015-12-05T14:51:27Z</time>
      </trkpt>
      <trkpt lat="45.25497" lon="4.25779">
        <ele>819.02</ele>
        <time>2015-12-05T14:51:29Z</time>
      </trkpt>
      <trkpt lat="45.255" lon="4.25751">
        <ele>818.09</ele>
        <time>2015-12-05T14:51:31Z</time>
      </trkpt>
      <trkpt lat="45.25502" lon="4.25724">
        <ele>816.98</ele>
        <time>2015-12-05T14:51:33Z</time>
      </trkpt>
      <trkpt lat="45.25508" lon="4.257">
        <ele>816.05</ele>
        <time>2015-12-05T14:51:35Z</time>
      </trkpt>
      <trkpt lat="45.25514" lon="4.25675">
        <ele>815.34</ele>
        <time>2015-12-05T14:51:37Z</time>
      </trkpt>
      <trkpt lat="45.25516" lon="4.2565">
        <ele>814.56</ele>
        <time>2015-12-05T14:51:39Z</time>
      </trkpt>
      <trkpt lat="45.25513" lon="4.25613">
        <ele>813.26</ele>
        <time>2015-12-05T14:51:42Z</time>
      </trkpt>
      <trkpt lat="45.25508" lon="4.25589">
        <ele>812.77</ele>
        <time>2015-12-05T14:51:44Z</time>
      </trkpt>
      <trkpt lat="45.25499" lon="4.25558">
        <ele>812.46</ele>
        <time>2015-12-05T14:51:47Z</time>
      </trkpt>
      <trkpt lat="45.25497" lon="4.25532">
        <ele>812.53</ele>
        <time>2015-12-05T14:51:50Z</time>
      </trkpt>
      <trkpt lat="45.25503" lon="4.2551">
        <ele>812.69</ele>
        <time>2015-12-05T14:51:55Z</time>
      </trkpt>
      <trkpt lat="45.25525" lon="4.25515">
        <ele>812.53</ele>
        <time>2015-12-05T14:52:00Z</time>
      </trkpt>
      <trkpt lat="45.25545" lon="4.25515">
        <ele>811.63</ele>
        <time>2015-12-05T14:52:04Z</time>
      </trkpt>
      <trkpt lat="45.25566" lon="4.25517">
        <ele>810.61</ele>
        <time>2015-12-05T14:52:08Z</time>
      </trkpt>
      <trkpt lat="45.25591" lon="4.25522">
        <ele>809.87</ele>
        <time>2015-12-05T14:52:12Z</time>
      </trkpt>
      <trkpt lat="45.2561" lon="4.25528">
        <ele>809.05</ele>
        <time>2015-12-05T14:52:15Z</time>
      </trkpt>
      <trkpt lat="45.25626" lon="4.25539">
        <ele>808.71</ele>
        <time>2015-12-05T14:52:18Z</time>
      </trkpt>
      <trkpt lat="45.25646" lon="4.25552">
        <ele>809.15</ele>
        <time>2015-12-05T14:52:22Z</time>
      </trkpt>
      <trkpt lat="45.25666" lon="4.25561">
        <ele>809.99</ele>
        <time>2015-12-05T14:52:26Z</time>
      </trkpt>
      <trkpt lat="45.25686" lon="4.2556">
        <ele>810.39</ele>
        <time>2015-12-05T14:52:30Z</time>
      </trkpt>
      <trkpt lat="45.25706" lon="4.25559">
        <ele>810.84</ele>
        <time>2015-12-05T14:52:34Z</time>
      </trkpt>
      <trkpt lat="45.25725" lon="4.25553">
        <ele>812.6</ele>
        <time>2015-12-05T14:52:40Z</time>
      </trkpt>
      <trkpt lat="45.2574" lon="4.25534">
        <ele>814.43</ele>
        <time>2015-12-05T14:52:46Z</time>
      </trkpt>
      <trkpt lat="45.25755" lon="4.25517">
        <ele>815.08</ele>
        <time>2015-12-05T14:52:51Z</time>
      </trkpt>
      <trkpt lat="45.25773" lon="4.25504">
        <ele>815.08</ele>
        <time>2015-12-05T14:52:56Z</time>
      </trkpt>
      <trkpt lat="45.25793" lon="4.25498">
        <ele>816.02</ele>
        <time>2015-12-05T14:53:02Z</time>
      </trkpt>
      <trkpt lat="45.25811" lon="4.25494">
        <ele>816.7</ele>
        <time>2015-12-05T14:53:07Z</time>
      </trkpt>
      <trkpt lat="45.25832" lon="4.2549">
        <ele>817.1</ele>
        <time>2015-12-05T14:53:12Z</time>
      </trkpt>
      <trkpt lat="45.25853" lon="4.25486">
        <ele>817.38</ele>
        <time>2015-12-05T14:53:17Z</time>
      </trkpt>
      <trkpt lat="45.25873" lon="4.25475">
        <ele>817.7</ele>
        <time>2015-12-05T14:53:22Z</time>
      </trkpt>
      <trkpt lat="45.2589" lon="4.25467">
        <ele>818.41</ele>
        <time>2015-12-05T14:53:28Z</time>
      </trkpt>
      <trkpt lat="45.25902" lon="4.25445">
        <ele>819.75</ele>
        <time>2015-12-05T14:53:36Z</time>
      </trkpt>
      <trkpt lat="45.25916" lon="4.25425">
        <ele>821.81</ele>
        <time>2015-12-05T14:53:46Z</time>
      </trkpt>
      <trkpt lat="45.25932" lon="4.2541">
        <ele>823.19</ele>
        <time>2015-12-05T14:53:56Z</time>
      </trkpt>
      <trkpt lat="45.25946" lon="4.25393">
        <ele>825.22</ele>
        <time>2015-12-05T14:54:08Z</time>
      </trkpt>
      <trkpt lat="45.25963" lon="4.25378">
        <ele>827.57</ele>
        <time>2015-12-05T14:54:21Z</time>
      </trkpt>
      <trkpt lat="45.25979" lon="4.25361">
        <ele>829.43</ele>
        <time>2015-12-05T14:54:33Z</time>
      </trkpt>
      <trkpt lat="45.25992" lon="4.25344">
        <ele>831.22</ele>
        <time>2015-12-05T14:54:44Z</time>
      </trkpt>
      <trkpt lat="45.26005" lon="4.25325">
        <ele>833.4</ele>
        <time>2015-12-05T14:54:57Z</time>
      </trkpt>
      <trkpt lat="45.26019" lon="4.25309">
        <ele>835.47</ele>
        <time>2015-12-05T14:55:09Z</time>
      </trkpt>
      <trkpt lat="45.26033" lon="4.25294">
        <ele>837.15</ele>
        <time>2015-12-05T14:55:21Z</time>
      </trkpt>
      <trkpt lat="45.26053" lon="4.25284">
        <ele>838.54</ele>
        <time>2015-12-05T14:55:31Z</time>
      </trkpt>
      <trkpt lat="45.26073" lon="4.25273">
        <ele>839.08</ele>
        <time>2015-12-05T14:55:40Z</time>
      </trkpt>
      <trkpt lat="45.26094" lon="4.2526">
        <ele>839.6</ele>
        <time>2015-12-05T14:55:49Z</time>
      </trkpt>
      <trkpt lat="45.26117" lon="4.25249">
        <ele>840.35</ele>
        <time>2015-12-05T14:55:57Z</time>
      </trkpt>
      <trkpt lat="45.26136" lon="4.2524">
        <ele>840.97</ele>
        <time>2015-12-05T14:56:03Z</time>
      </trkpt>
      <trkpt lat="45.26157" lon="4.25232">
        <ele>841.95</ele>
        <time>2015-12-05T14:56:10Z</time>
      </trkpt>
      <trkpt lat="45.26178" lon="4.25223">
        <ele>842.79</ele>
        <time>2015-12-05T14:56:17Z</time>
      </trkpt>
      <trkpt lat="45.26203" lon="4.25216">
        <ele>843.23</ele>
        <time>2015-12-05T14:56:24Z</time>
      </trkpt>
      <trkpt lat="45.26226" lon="4.2521">
        <ele>843.49</ele>
        <time>2015-12-05T14:56:29Z</time>
      </trkpt>
      <trkpt lat="45.26247" lon="4.25205">
        <ele>843.78</ele>
        <time>2015-12-05T14:56:35Z</time>
      </trkpt>
      <trkpt lat="45.26267" lon="4.25199">
        <ele>844.9</ele>
        <time>2015-12-05T14:56:47Z</time>
      </trkpt>
      <trkpt lat="45.26256" lon="4.25185">
        <ele>844.76</ele>
        <time>2015-12-05T14:57:33Z</time>
      </trkpt>
      <trkpt lat="45.26239" lon="4.25168">
        <ele>844.46</ele>
        <time>2015-12-05T14:57:39Z</time>
      </trkpt>
      <trkpt lat="45.26223" lon="4.25152">
        <ele>844.28</ele>
        <time>2015-12-05T14:57:44Z</time>
      </trkpt>
      <trkpt lat="45.26205" lon="4.25137">
        <ele>844.25</ele>
        <time>2015-12-05T14:57:49Z</time>
      </trkpt>
      <trkpt lat="45.26186" lon="4.25122">
        <ele>844.15</ele>
        <time>2015-12-05T14:57:53Z</time>
      </trkpt>
      <trkpt lat="45.26166" lon="4.25105">
        <ele>843.86</ele>
        <time>2015-12-05T14:57:57Z</time>
      </trkpt>
      <trkpt lat="45.26145" lon="4.25091">
        <ele>842.74</ele>
        <time>2015-12-05T14:58:01Z</time>
      </trkpt>
      <trkpt lat="45.26124" lon="4.25079">
        <ele>841.82</ele>
        <time>2015-12-05T14:58:05Z</time>
      </trkpt>
      <trkpt lat="45.26105" lon="4.25063">
        <ele>841.2</ele>
        <time>2015-12-05T14:58:09Z</time>
      </trkpt>
      <trkpt lat="45.26087" lon="4.25043">
        <ele>840.83</ele>
        <time>2015-12-05T14:58:13Z</time>
      </trkpt>
      <trkpt lat="45.26068" lon="4.25025">
        <ele>840.43</ele>
        <time>2015-12-05T14:58:17Z</time>
      </trkpt>
      <trkpt lat="45.26051" lon="4.25008">
        <ele>840.19</ele>
        <time>2015-12-05T14:58:21Z</time>
      </trkpt>
      <trkpt lat="45.26033" lon="4.2499">
        <ele>840.21</ele>
        <time>2015-12-05T14:58:25Z</time>
      </trkpt>
      <trkpt lat="45.26019" lon="4.24963">
        <ele>839.79</ele>
        <time>2015-12-05T14:58:29Z</time>
      </trkpt>
      <trkpt lat="45.26004" lon="4.24941">
        <ele>838.48</ele>
        <time>2015-12-05T14:58:32Z</time>
      </trkpt>
      <trkpt lat="45.25986" lon="4.24925">
        <ele>836.86</ele>
        <time>2015-12-05T14:58:35Z</time>
      </trkpt>
      <trkpt lat="45.25968" lon="4.24913">
        <ele>835.42</ele>
        <time>2015-12-05T14:58:38Z</time>
      </trkpt>
      <trkpt lat="45.2595" lon="4.24901">
        <ele>834.2</ele>
        <time>2015-12-05T14:58:41Z</time>
      </trkpt>
      <trkpt lat="45.25931" lon="4.24884">
        <ele>832.82</ele>
        <time>2015-12-05T14:58:44Z</time>
      </trkpt>
      <trkpt lat="45.25921" lon="4.24862">
        <ele>831.63</ele>
        <time>2015-12-05T14:58:47Z</time>
      </trkpt>
      <trkpt lat="45.25914" lon="4.24831">
        <ele>830.77</ele>
        <time>2015-12-05T14:58:51Z</time>
      </trkpt>
      <trkpt lat="45.25903" lon="4.248">
        <ele>830.31</ele>
        <time>2015-12-05T14:58:55Z</time>
      </trkpt>
      <trkpt lat="45.25899" lon="4.24772">
        <ele>829.69</ele>
        <time>2015-12-05T14:58:58Z</time>
      </trkpt>
      <trkpt lat="45.25894" lon="4.24737">
        <ele>828.92</ele>
        <time>2015-12-05T14:59:01Z</time>
      </trkpt>
      <trkpt lat="45.25892" lon="4.24711">
        <ele>828</ele>
        <time>2015-12-05T14:59:03Z</time>
      </trkpt>
      <trkpt lat="45.25889" lon="4.24685">
        <ele>826.69</ele>
        <time>2015-12-05T14:59:05Z</time>
      </trkpt>
      <trkpt lat="45.25881" lon="4.24658">
        <ele>824.92</ele>
        <time>2015-12-05T14:59:07Z</time>
      </trkpt>
      <trkpt lat="45.25874" lon="4.24633">
        <ele>823.01</ele>
        <time>2015-12-05T14:59:09Z</time>
      </trkpt>
      <trkpt lat="45.25867" lon="4.24602">
        <ele>820.14</ele>
        <time>2015-12-05T14:59:12Z</time>
      </trkpt>
      <trkpt lat="45.25864" lon="4.24576">
        <ele>818.26</ele>
        <time>2015-12-05T14:59:18Z</time>
      </trkpt>
      <trkpt lat="45.25861" lon="4.24549">
        <ele>818.82</ele>
        <time>2015-12-05T14:59:24Z</time>
      </trkpt>
      <trkpt lat="45.25861" lon="4.2452">
        <ele>819.28</ele>
        <time>2015-12-05T14:59:30Z</time>
      </trkpt>
      <trkpt lat="45.25856" lon="4.24493">
        <ele>821.55</ele>
        <time>2015-12-05T14:59:39Z</time>
      </trkpt>
      <trkpt lat="45.25855" lon="4.24469">
        <ele>822.88</ele>
        <time>2015-12-05T15:00:38Z</time>
      </trkpt>
      <trkpt lat="45.25854" lon="4.24441">
        <ele>823.56</ele>
        <time>2015-12-05T15:00:45Z</time>
      </trkpt>
      <trkpt lat="45.25853" lon="4.24408">
        <ele>824.19</ele>
        <time>2015-12-05T15:00:52Z</time>
      </trkpt>
      <trkpt lat="45.25852" lon="4.2438">
        <ele>823.93</ele>
        <time>2015-12-05T15:00:56Z</time>
      </trkpt>
      <trkpt lat="45.25851" lon="4.24345">
        <ele>822.66</ele>
        <time>2015-12-05T15:01:00Z</time>
      </trkpt>
      <trkpt lat="45.2585" lon="4.24313">
        <ele>821.38</ele>
        <time>2015-12-05T15:01:04Z</time>
      </trkpt>
      <trkpt lat="45.25847" lon="4.24285">
        <ele>820.64</ele>
        <time>2015-12-05T15:01:08Z</time>
      </trkpt>
      <trkpt lat="45.25859" lon="4.2426">
        <ele>820.72</ele>
        <time>2015-12-05T15:01:13Z</time>
      </trkpt>
      <trkpt lat="45.25878" lon="4.24238">
        <ele>821.38</ele>
        <time>2015-12-05T15:01:18Z</time>
      </trkpt>
      <trkpt lat="45.25893" lon="4.24218">
        <ele>821.91</ele>
        <time>2015-12-05T15:01:23Z</time>
      </trkpt>
      <trkpt lat="45.25909" lon="4.24197">
        <ele>822.2</ele>
        <time>2015-12-05T15:01:28Z</time>
      </trkpt>
      <trkpt lat="45.25924" lon="4.24172">
        <ele>821.95</ele>
        <time>2015-12-05T15:01:33Z</time>
      </trkpt>
      <trkpt lat="45.25936" lon="4.2415">
        <ele>821.61</ele>
        <time>2015-12-05T15:01:37Z</time>
      </trkpt>
      <trkpt lat="45.25949" lon="4.24124">
        <ele>820.59</ele>
        <time>2015-12-05T15:01:41Z</time>
      </trkpt>
      <trkpt lat="45.25957" lon="4.24097">
        <ele>819.77</ele>
        <time>2015-12-05T15:01:44Z</time>
      </trkpt>
      <trkpt lat="45.2596" lon="4.24071">
        <ele>818.38</ele>
        <time>2015-12-05T15:01:48Z</time>
      </trkpt>
      <trkpt lat="45.2596" lon="4.24041">
        <ele>817.22</ele>
        <time>2015-12-05T15:01:53Z</time>
      </trkpt>
      <trkpt lat="45.25968" lon="4.24012">
        <ele>815.97</ele>
        <time>2015-12-05T15:01:57Z</time>
      </trkpt>
      <trkpt lat="45.25985" lon="4.23992">
        <ele>814.3</ele>
        <time>2015-12-05T15:02:01Z</time>
      </trkpt>
      <trkpt lat="45.26001" lon="4.23975">
        <ele>813.27</ele>
        <time>2015-12-05T15:02:04Z</time>
      </trkpt>
      <trkpt lat="45.26018" lon="4.23959">
        <ele>812.17</ele>
        <time>2015-12-05T15:02:07Z</time>
      </trkpt>
      <trkpt lat="45.26035" lon="4.23946">
        <ele>811.35</ele>
        <time>2015-12-05T15:02:10Z</time>
      </trkpt>
      <trkpt lat="45.26054" lon="4.23928">
        <ele>810.76</ele>
        <time>2015-12-05T15:02:14Z</time>
      </trkpt>
      <trkpt lat="45.26071" lon="4.23907">
        <ele>810.56</ele>
        <time>2015-12-05T15:02:18Z</time>
      </trkpt>
      <trkpt lat="45.26087" lon="4.23887">
        <ele>810.69</ele>
        <time>2015-12-05T15:02:22Z</time>
      </trkpt>
      <trkpt lat="45.26101" lon="4.23869">
        <ele>811.08</ele>
        <time>2015-12-05T15:02:26Z</time>
      </trkpt>
      <trkpt lat="45.26117" lon="4.23848">
        <ele>811.2</ele>
        <time>2015-12-05T15:02:31Z</time>
      </trkpt>
      <trkpt lat="45.26133" lon="4.23834">
        <ele>811.09</ele>
        <time>2015-12-05T15:02:36Z</time>
      </trkpt>
      <trkpt lat="45.26141" lon="4.23806">
        <ele>810.45</ele>
        <time>2015-12-05T15:02:41Z</time>
      </trkpt>
      <trkpt lat="45.26148" lon="4.23776">
        <ele>809.76</ele>
        <time>2015-12-05T15:02:45Z</time>
      </trkpt>
      <trkpt lat="45.26155" lon="4.23743">
        <ele>808.64</ele>
        <time>2015-12-05T15:02:49Z</time>
      </trkpt>
      <trkpt lat="45.26162" lon="4.23717">
        <ele>807.44</ele>
        <time>2015-12-05T15:02:52Z</time>
      </trkpt>
      <trkpt lat="45.2617" lon="4.23691">
        <ele>804.88</ele>
        <time>2015-12-05T15:02:55Z</time>
      </trkpt>
      <trkpt lat="45.2618" lon="4.23667">
        <ele>802.35</ele>
        <time>2015-12-05T15:02:58Z</time>
      </trkpt>
      <trkpt lat="45.26189" lon="4.23645">
        <ele>799.7</ele>
        <time>2015-12-05T15:03:01Z</time>
      </trkpt>
      <trkpt lat="45.26201" lon="4.23622">
        <ele>796.67</ele>
        <time>2015-12-05T15:03:05Z</time>
      </trkpt>
      <trkpt lat="45.2621" lon="4.23592">
        <ele>794.55</ele>
        <time>2015-12-05T15:03:09Z</time>
      </trkpt>
      <trkpt lat="45.26219" lon="4.23568">
        <ele>792.4</ele>
        <time>2015-12-05T15:03:12Z</time>
      </trkpt>
      <trkpt lat="45.26227" lon="4.23538">
        <ele>789.94</ele>
        <time>2015-12-05T15:03:16Z</time>
      </trkpt>
      <trkpt lat="45.26235" lon="4.23514">
        <ele>788.28</ele>
        <time>2015-12-05T15:03:23Z</time>
      </trkpt>
      <trkpt lat="45.26252" lon="4.23506">
        <ele>791.72</ele>
        <time>2015-12-05T15:03:39Z</time>
      </trkpt>
      <trkpt lat="45.26239" lon="4.2348">
        <ele>796</ele>
        <time>2015-12-05T15:04:03Z</time>
      </trkpt>
      <trkpt lat="45.26229" lon="4.23454">
        <ele>798.69</ele>
        <time>2015-12-05T15:04:23Z</time>
      </trkpt>
      <trkpt lat="45.26239" lon="4.23425">
        <ele>802.86</ele>
        <time>2015-12-05T15:04:49Z</time>
      </trkpt>
      <trkpt lat="45.26242" lon="4.23398">
        <ele>806.04</ele>
        <time>2015-12-05T15:05:13Z</time>
      </trkpt>
      <trkpt lat="45.26244" lon="4.2337">
        <ele>808.2</ele>
        <time>2015-12-05T15:05:34Z</time>
      </trkpt>
      <trkpt lat="45.26243" lon="4.23339">
        <ele>810.57</ele>
        <time>2015-12-05T15:05:56Z</time>
      </trkpt>
      <trkpt lat="45.26242" lon="4.23312">
        <ele>812.61</ele>
        <time>2015-12-05T15:06:54Z</time>
      </trkpt>
      <trkpt lat="45.26246" lon="4.23284">
        <ele>812.29</ele>
        <time>2015-12-05T15:07:02Z</time>
      </trkpt>
      <trkpt lat="45.26249" lon="4.23257">
        <ele>811.91</ele>
        <time>2015-12-05T15:07:07Z</time>
      </trkpt>
      <trkpt lat="45.26262" lon="4.23232">
        <ele>811.81</ele>
        <time>2015-12-05T15:07:12Z</time>
      </trkpt>
      <trkpt lat="45.26279" lon="4.2322">
        <ele>812.16</ele>
        <time>2015-12-05T15:07:17Z</time>
      </trkpt>
      <trkpt lat="45.26297" lon="4.23208">
        <ele>813.19</ele>
        <time>2015-12-05T15:07:24Z</time>
      </trkpt>
      <trkpt lat="45.26309" lon="4.23185">
        <ele>813.04</ele>
        <time>2015-12-05T15:07:29Z</time>
      </trkpt>
      <trkpt lat="45.2631" lon="4.23155">
        <ele>812.04</ele>
        <time>2015-12-05T15:07:33Z</time>
      </trkpt>
      <trkpt lat="45.26311" lon="4.23126">
        <ele>810.6</ele>
        <time>2015-12-05T15:07:37Z</time>
      </trkpt>
      <trkpt lat="45.26305" lon="4.23101">
        <ele>809.02</ele>
        <time>2015-12-05T15:07:41Z</time>
      </trkpt>
      <trkpt lat="45.26304" lon="4.23072">
        <ele>807.9</ele>
        <time>2015-12-05T15:07:47Z</time>
      </trkpt>
      <trkpt lat="45.26317" lon="4.23053">
        <ele>807.48</ele>
        <time>2015-12-05T15:07:51Z</time>
      </trkpt>
      <trkpt lat="45.26332" lon="4.23032">
        <ele>806.55</ele>
        <time>2015-12-05T15:07:55Z</time>
      </trkpt>
      <trkpt lat="45.26346" lon="4.23011">
        <ele>805.96</ele>
        <time>2015-12-05T15:07:59Z</time>
      </trkpt>
      <trkpt lat="45.2636" lon="4.22989">
        <ele>805.71</ele>
        <time>2015-12-05T15:08:03Z</time>
      </trkpt>
      <trkpt lat="45.26371" lon="4.22964">
        <ele>805.66</ele>
        <time>2015-12-05T15:08:07Z</time>
      </trkpt>
      <trkpt lat="45.26382" lon="4.22939">
        <ele>805.95</ele>
        <time>2015-12-05T15:08:11Z</time>
      </trkpt>
      <trkpt lat="45.2639" lon="4.22913">
        <ele>806.25</ele>
        <time>2015-12-05T15:08:15Z</time>
      </trkpt>
      <trkpt lat="45.26396" lon="4.22884">
        <ele>806.33</ele>
        <time>2015-12-05T15:08:19Z</time>
      </trkpt>
      <trkpt lat="45.26403" lon="4.22854">
        <ele>806.19</ele>
        <time>2015-12-05T15:08:23Z</time>
      </trkpt>
      <trkpt lat="45.2641" lon="4.22825">
        <ele>805.62</ele>
        <time>2015-12-05T15:08:27Z</time>
      </trkpt>
      <trkpt lat="45.26417" lon="4.22796">
        <ele>805.09</ele>
        <time>2015-12-05T15:08:31Z</time>
      </trkpt>
      <trkpt lat="45.26424" lon="4.22765">
        <ele>804.49</ele>
        <time>2015-12-05T15:08:35Z</time>
      </trkpt>
      <trkpt lat="45.2643" lon="4.22741">
        <ele>804.29</ele>
        <time>2015-12-05T15:08:38Z</time>
      </trkpt>
      <trkpt lat="45.26436" lon="4.22711">
        <ele>804.24</ele>
        <time>2015-12-05T15:08:42Z</time>
      </trkpt>
      <trkpt lat="45.26442" lon="4.22681">
        <ele>804.1</ele>
        <time>2015-12-05T15:08:46Z</time>
      </trkpt>
      <trkpt lat="45.26446" lon="4.22654">
        <ele>804.1</ele>
        <time>2015-12-05T15:08:50Z</time>
      </trkpt>
      <trkpt lat="45.26451" lon="4.22625">
        <ele>804.3</ele>
        <time>2015-12-05T15:08:54Z</time>
      </trkpt>
      <trkpt lat="45.26454" lon="4.22596">
        <ele>804.62</ele>
        <time>2015-12-05T15:08:58Z</time>
      </trkpt>
      <trkpt lat="45.26465" lon="4.22567">
        <ele>804.63</ele>
        <time>2015-12-05T15:09:02Z</time>
      </trkpt>
      <trkpt lat="45.26476" lon="4.2254">
        <ele>804.64</ele>
        <time>2015-12-05T15:09:06Z</time>
      </trkpt>
      <trkpt lat="45.2649" lon="4.2251">
        <ele>804.74</ele>
        <time>2015-12-05T15:09:10Z</time>
      </trkpt>
      <trkpt lat="45.26505" lon="4.22483">
        <ele>804.88</ele>
        <time>2015-12-05T15:09:14Z</time>
      </trkpt>
      <trkpt lat="45.26517" lon="4.22456">
        <ele>805.15</ele>
        <time>2015-12-05T15:09:18Z</time>
      </trkpt>
      <trkpt lat="45.26527" lon="4.22433">
        <ele>805.77</ele>
        <time>2015-12-05T15:09:22Z</time>
      </trkpt>
      <trkpt lat="45.26535" lon="4.22406">
        <ele>806.32</ele>
        <time>2015-12-05T15:09:26Z</time>
      </trkpt>
      <trkpt lat="45.26539" lon="4.22375">
        <ele>806.32</ele>
        <time>2015-12-05T15:09:30Z</time>
      </trkpt>
      <trkpt lat="45.26544" lon="4.22349">
        <ele>805.96</ele>
        <time>2015-12-05T15:09:33Z</time>
      </trkpt>
      <trkpt lat="45.26557" lon="4.22318">
        <ele>804.62</ele>
        <time>2015-12-05T15:09:36Z</time>
      </trkpt>
      <trkpt lat="45.26573" lon="4.22296">
        <ele>801.87</ele>
        <time>2015-12-05T15:09:39Z</time>
      </trkpt>
      <trkpt lat="45.26593" lon="4.22282">
        <ele>799.2</ele>
        <time>2015-12-05T15:09:42Z</time>
      </trkpt>
      <trkpt lat="45.26611" lon="4.22261">
        <ele>797.41</ele>
        <time>2015-12-05T15:09:45Z</time>
      </trkpt>
      <trkpt lat="45.26624" lon="4.22236">
        <ele>796.02</ele>
        <time>2015-12-05T15:09:48Z</time>
      </trkpt>
      <trkpt lat="45.26639" lon="4.22215">
        <ele>794.44</ele>
        <time>2015-12-05T15:09:51Z</time>
      </trkpt>
      <trkpt lat="45.26652" lon="4.2219">
        <ele>793.41</ele>
        <time>2015-12-05T15:09:54Z</time>
      </trkpt>
      <trkpt lat="45.26664" lon="4.2217">
        <ele>792.69</ele>
        <time>2015-12-05T15:09:57Z</time>
      </trkpt>
      <trkpt lat="45.26678" lon="4.22152">
        <ele>792.05</ele>
        <time>2015-12-05T15:10:00Z</time>
      </trkpt>
      <trkpt lat="45.26691" lon="4.22132">
        <ele>791.09</ele>
        <time>2015-12-05T15:10:04Z</time>
      </trkpt>
      <trkpt lat="45.26704" lon="4.2211">
        <ele>789.21</ele>
        <time>2015-12-05T15:10:09Z</time>
      </trkpt>
      <trkpt lat="45.26721" lon="4.22092">
        <ele>785.46</ele>
        <time>2015-12-05T15:10:15Z</time>
      </trkpt>
      <trkpt lat="45.26735" lon="4.22064">
        <ele>781.35</ele>
        <time>2015-12-05T15:10:21Z</time>
      </trkpt>
      <trkpt lat="45.26738" lon="4.22033">
        <ele>778.79</ele>
        <time>2015-12-05T15:10:25Z</time>
      </trkpt>
      <trkpt lat="45.26741" lon="4.22005">
        <ele>775.62</ele>
        <time>2015-12-05T15:10:30Z</time>
      </trkpt>
      <trkpt lat="45.26749" lon="4.21979">
        <ele>770.94</ele>
        <time>2015-12-05T15:10:38Z</time>
      </trkpt>
      <trkpt lat="45.26757" lon="4.2195">
        <ele>767.18</ele>
        <time>2015-12-05T15:10:46Z</time>
      </trkpt>
      <trkpt lat="45.26764" lon="4.21919">
        <ele>763.56</ele>
        <time>2015-12-05T15:10:54Z</time>
      </trkpt>
      <trkpt lat="45.26773" lon="4.21891">
        <ele>758.36</ele>
        <time>2015-12-05T15:11:03Z</time>
      </trkpt>
      <trkpt lat="45.26783" lon="4.21858">
        <ele>754.65</ele>
        <time>2015-12-05T15:11:09Z</time>
      </trkpt>
      <trkpt lat="45.26791" lon="4.2183">
        <ele>752.38</ele>
        <time>2015-12-05T15:11:13Z</time>
      </trkpt>
      <trkpt lat="45.268" lon="4.21803">
        <ele>749.81</ele>
        <time>2015-12-05T15:11:17Z</time>
      </trkpt>
      <trkpt lat="45.26803" lon="4.2177">
        <ele>746.85</ele>
        <time>2015-12-05T15:11:22Z</time>
      </trkpt>
      <trkpt lat="45.26807" lon="4.2174">
        <ele>744.52</ele>
        <time>2015-12-05T15:11:27Z</time>
      </trkpt>
      <trkpt lat="45.26817" lon="4.21715">
        <ele>742.41</ele>
        <time>2015-12-05T15:11:31Z</time>
      </trkpt>
      <trkpt lat="45.26836" lon="4.21694">
        <ele>739.83</ele>
        <time>2015-12-05T15:11:36Z</time>
      </trkpt>
      <trkpt lat="45.2684" lon="4.21665">
        <ele>736.76</ele>
        <time>2015-12-05T15:11:41Z</time>
      </trkpt>
      <trkpt lat="45.26828" lon="4.2164">
        <ele>734.14</ele>
        <time>2015-12-05T15:11:45Z</time>
      </trkpt>
      <trkpt lat="45.26814" lon="4.21618">
        <ele>732.49</ele>
        <time>2015-12-05T15:11:49Z</time>
      </trkpt>
      <trkpt lat="45.26803" lon="4.21597">
        <ele>731.36</ele>
        <time>2015-12-05T15:11:53Z</time>
      </trkpt>
      <trkpt lat="45.26788" lon="4.21576">
        <ele>730.89</ele>
        <time>2015-12-05T15:11:58Z</time>
      </trkpt>
      <trkpt lat="45.2678" lon="4.2155">
        <ele>730.55</ele>
        <time>2015-12-05T15:12:05Z</time>
      </trkpt>
      <trkpt lat="45.26781" lon="4.21521">
        <ele>730.56</ele>
        <time>2015-12-05T15:12:11Z</time>
      </trkpt>
      <trkpt lat="45.26776" lon="4.21495">
        <ele>731.75</ele>
        <time>2015-12-05T15:12:18Z</time>
      </trkpt>
      <trkpt lat="45.26766" lon="4.21471">
        <ele>733.14</ele>
        <time>2015-12-05T15:12:25Z</time>
      </trkpt>
      <trkpt lat="45.26757" lon="4.21448">
        <ele>733.75</ele>
        <time>2015-12-05T15:12:32Z</time>
      </trkpt>
      <trkpt lat="45.26742" lon="4.21427">
        <ele>734.78</ele>
        <time>2015-12-05T15:12:41Z</time>
      </trkpt>
      <trkpt lat="45.26724" lon="4.21406">
        <ele>737.28</ele>
        <time>2015-12-05T15:12:54Z</time>
      </trkpt>
      <trkpt lat="45.2672" lon="4.21377">
        <ele>738.71</ele>
        <time>2015-12-05T15:13:05Z</time>
      </trkpt>
      <trkpt lat="45.26727" lon="4.21352">
        <ele>740.29</ele>
        <time>2015-12-05T15:13:16Z</time>
      </trkpt>
      <trkpt lat="45.26732" lon="4.21322">
        <ele>740.38</ele>
        <time>2015-12-05T15:13:22Z</time>
      </trkpt>
      <trkpt lat="45.26739" lon="4.21295">
        <ele>739.85</ele>
        <time>2015-12-05T15:13:27Z</time>
      </trkpt>
      <trkpt lat="45.26737" lon="4.21267">
        <ele>739.16</ele>
        <time>2015-12-05T15:13:32Z</time>
      </trkpt>
      <trkpt lat="45.26727" lon="4.2124">
        <ele>738.93</ele>
        <time>2015-12-05T15:13:37Z</time>
      </trkpt>
      <trkpt lat="45.26716" lon="4.21215">
        <ele>739.29</ele>
        <time>2015-12-05T15:13:43Z</time>
      </trkpt>
      <trkpt lat="45.26699" lon="4.21198">
        <ele>740.43</ele>
        <time>2015-12-05T15:13:51Z</time>
      </trkpt>
      <trkpt lat="45.26683" lon="4.21176">
        <ele>742.78</ele>
        <time>2015-12-05T15:14:01Z</time>
      </trkpt>
      <trkpt lat="45.26672" lon="4.21147">
        <ele>742.7</ele>
        <time>2015-12-05T15:14:07Z</time>
      </trkpt>
      <trkpt lat="45.26665" lon="4.21113">
        <ele>741.31</ele>
        <time>2015-12-05T15:14:11Z</time>
      </trkpt>
      <trkpt lat="45.26649" lon="4.211">
        <ele>739.11</ele>
        <time>2015-12-05T15:14:15Z</time>
      </trkpt>
      <trkpt lat="45.2663" lon="4.21088">
        <ele>738.49</ele>
        <time>2015-12-05T15:14:21Z</time>
      </trkpt>
      <trkpt lat="45.2661" lon="4.21077">
        <ele>738.86</ele>
        <time>2015-12-05T15:14:27Z</time>
      </trkpt>
      <trkpt lat="45.26591" lon="4.21069">
        <ele>738.72</ele>
        <time>2015-12-05T15:14:32Z</time>
      </trkpt>
      <trkpt lat="45.2658" lon="4.21047">
        <ele>739.97</ele>
        <time>2015-12-05T15:14:39Z</time>
      </trkpt>
      <trkpt lat="45.26581" lon="4.21019">
        <ele>741.63</ele>
        <time>2015-12-05T15:14:46Z</time>
      </trkpt>
      <trkpt lat="45.2658" lon="4.20994">
        <ele>742.94</ele>
        <time>2015-12-05T15:14:55Z</time>
      </trkpt>
      <trkpt lat="45.26579" lon="4.20966">
        <ele>747.25</ele>
        <time>2015-12-05T15:15:13Z</time>
      </trkpt>
      <trkpt lat="45.26556" lon="4.20961">
        <ele>748.58</ele>
        <time>2015-12-05T15:15:49Z</time>
      </trkpt>
      <trkpt lat="45.26542" lon="4.20948">
        <ele>747.14</ele>
        <time>2015-12-05T15:15:52Z</time>
      </trkpt>
      <trkpt lat="45.26536" lon="4.20922">
        <ele>744.76</ele>
        <time>2015-12-05T15:15:55Z</time>
      </trkpt>
      <trkpt lat="45.26541" lon="4.20891">
        <ele>742.28</ele>
        <time>2015-12-05T15:15:58Z</time>
      </trkpt>
      <trkpt lat="45.26547" lon="4.20864">
        <ele>741.06</ele>
        <time>2015-12-05T15:16:01Z</time>
      </trkpt>
      <trkpt lat="45.26555" lon="4.20839">
        <ele>740.41</ele>
        <time>2015-12-05T15:16:04Z</time>
      </trkpt>
      <trkpt lat="45.26565" lon="4.20815">
        <ele>739.9</ele>
        <time>2015-12-05T15:16:07Z</time>
      </trkpt>
      <trkpt lat="45.26575" lon="4.20793">
        <ele>739.35</ele>
        <time>2015-12-05T15:16:10Z</time>
      </trkpt>
      <trkpt lat="45.26588" lon="4.20763">
        <ele>739.1</ele>
        <time>2015-12-05T15:16:14Z</time>
      </trkpt>
      <trkpt lat="45.26589" lon="4.20729">
        <ele>739.28</ele>
        <time>2015-12-05T15:16:18Z</time>
      </trkpt>
      <trkpt lat="45.26575" lon="4.20703">
        <ele>739.53</ele>
        <time>2015-12-05T15:16:22Z</time>
      </trkpt>
      <trkpt lat="45.26562" lon="4.20683">
        <ele>740.1</ele>
        <time>2015-12-05T15:16:26Z</time>
      </trkpt>
      <trkpt lat="45.26552" lon="4.20657">
        <ele>741.37</ele>
        <time>2015-12-05T15:16:31Z</time>
      </trkpt>
      <trkpt lat="45.26547" lon="4.20632">
        <ele>742.19</ele>
        <time>2015-12-05T15:16:35Z</time>
      </trkpt>
      <trkpt lat="45.26545" lon="4.20607">
        <ele>742.35</ele>
        <time>2015-12-05T15:16:38Z</time>
      </trkpt>
      <trkpt lat="45.26543" lon="4.20579">
        <ele>741.97</ele>
        <time>2015-12-05T15:16:41Z</time>
      </trkpt>
      <trkpt lat="45.2654" lon="4.20549">
        <ele>741.45</ele>
        <time>2015-12-05T15:16:44Z</time>
      </trkpt>
      <trkpt lat="45.26539" lon="4.20512">
        <ele>740.76</ele>
        <time>2015-12-05T15:16:47Z</time>
      </trkpt>
      <trkpt lat="45.2654" lon="4.20484">
        <ele>738.91</ele>
        <time>2015-12-05T15:16:49Z</time>
      </trkpt>
      <trkpt lat="45.26543" lon="4.20454">
        <ele>737.03</ele>
        <time>2015-12-05T15:16:51Z</time>
      </trkpt>
      <trkpt lat="45.26545" lon="4.20421">
        <ele>734.91</ele>
        <time>2015-12-05T15:16:53Z</time>
      </trkpt>
      <trkpt lat="45.26553" lon="4.2039">
        <ele>732.61</ele>
        <time>2015-12-05T15:16:55Z</time>
      </trkpt>
      <trkpt lat="45.26566" lon="4.20358">
        <ele>730.23</ele>
        <time>2015-12-05T15:16:57Z</time>
      </trkpt>
      <trkpt lat="45.26581" lon="4.20327">
        <ele>727.23</ele>
        <time>2015-12-05T15:16:59Z</time>
      </trkpt>
      <trkpt lat="45.26594" lon="4.20294">
        <ele>724.3</ele>
        <time>2015-12-05T15:17:01Z</time>
      </trkpt>
      <trkpt lat="45.26605" lon="4.20262">
        <ele>721.89</ele>
        <time>2015-12-05T15:17:03Z</time>
      </trkpt>
      <trkpt lat="45.26616" lon="4.20227">
        <ele>719.51</ele>
        <time>2015-12-05T15:17:05Z</time>
      </trkpt>
      <trkpt lat="45.26625" lon="4.20193">
        <ele>717.42</ele>
        <time>2015-12-05T15:17:07Z</time>
      </trkpt>
      <trkpt lat="45.26635" lon="4.20159">
        <ele>715.3</ele>
        <time>2015-12-05T15:17:09Z</time>
      </trkpt>
      <trkpt lat="45.26645" lon="4.20129">
        <ele>713.34</ele>
        <time>2015-12-05T15:17:11Z</time>
      </trkpt>
      <trkpt lat="45.2666" lon="4.20104">
        <ele>710.98</ele>
        <time>2015-12-05T15:17:13Z</time>
      </trkpt>
      <trkpt lat="45.26679" lon="4.20083">
        <ele>709.6</ele>
        <time>2015-12-05T15:17:15Z</time>
      </trkpt>
      <trkpt lat="45.2669" lon="4.20057">
        <ele>708.07</ele>
        <time>2015-12-05T15:17:17Z</time>
      </trkpt>
      <trkpt lat="45.26695" lon="4.2003">
        <ele>706.64</ele>
        <time>2015-12-05T15:17:19Z</time>
      </trkpt>
      <trkpt lat="45.26699" lon="4.20004">
        <ele>705.7</ele>
        <time>2015-12-05T15:17:21Z</time>
      </trkpt>
      <trkpt lat="45.26703" lon="4.19972">
        <ele>705.69</ele>
        <time>2015-12-05T15:17:24Z</time>
      </trkpt>
      <trkpt lat="45.26709" lon="4.19943">
        <ele>707.82</ele>
        <time>2015-12-05T15:17:28Z</time>
      </trkpt>
      <trkpt lat="45.26722" lon="4.19924">
        <ele>710.68</ele>
        <time>2015-12-05T15:17:32Z</time>
      </trkpt>
      <trkpt lat="45.26735" lon="4.19905">
        <ele>712.49</ele>
        <time>2015-12-05T15:17:36Z</time>
      </trkpt>
      <trkpt lat="45.26748" lon="4.19882">
        <ele>713.59</ele>
        <time>2015-12-05T15:17:40Z</time>
      </trkpt>
      <trkpt lat="45.2676" lon="4.1986">
        <ele>713.91</ele>
        <time>2015-12-05T15:17:44Z</time>
      </trkpt>
      <trkpt lat="45.26762" lon="4.19833">
        <ele>715.33</ele>
        <time>2015-12-05T15:17:50Z</time>
      </trkpt>
      <trkpt lat="45.26764" lon="4.19805">
        <ele>717.06</ele>
        <time>2015-12-05T15:17:57Z</time>
      </trkpt>
      <trkpt lat="45.26762" lon="4.19779">
        <ele>718.09</ele>
        <time>2015-12-05T15:18:04Z</time>
      </trkpt>
      <trkpt lat="45.26753" lon="4.19756">
        <ele>720.59</ele>
        <time>2015-12-05T15:18:15Z</time>
      </trkpt>
      <trkpt lat="45.26746" lon="4.1973">
        <ele>722.16</ele>
        <time>2015-12-05T15:18:25Z</time>
      </trkpt>
      <trkpt lat="45.26738" lon="4.19705">
        <ele>723.15</ele>
        <time>2015-12-05T15:18:33Z</time>
      </trkpt>
      <trkpt lat="45.26733" lon="4.1968">
        <ele>723.81</ele>
        <time>2015-12-05T15:18:41Z</time>
      </trkpt>
      <trkpt lat="45.26733" lon="4.19654">
        <ele>725.1</ele>
        <time>2015-12-05T15:18:51Z</time>
      </trkpt>
      <trkpt lat="45.26741" lon="4.19633">
        <ele>725.76</ele>
        <time>2015-12-05T15:19:29Z</time>
      </trkpt>
      <trkpt lat="45.26751" lon="4.19611">
        <ele>724.74</ele>
        <time>2015-12-05T15:19:36Z</time>
      </trkpt>
      <trkpt lat="45.26761" lon="4.19588">
        <ele>723.68</ele>
        <time>2015-12-05T15:19:42Z</time>
      </trkpt>
      <trkpt lat="45.26779" lon="4.19573">
        <ele>722.32</ele>
        <time>2015-12-05T15:19:46Z</time>
      </trkpt>
      <trkpt lat="45.26796" lon="4.19561">
        <ele>720.86</ele>
        <time>2015-12-05T15:19:49Z</time>
      </trkpt>
      <trkpt lat="45.26812" lon="4.19534">
        <ele>718.53</ele>
        <time>2015-12-05T15:19:52Z</time>
      </trkpt>
      <trkpt lat="45.26823" lon="4.19504">
        <ele>717.23</ele>
        <time>2015-12-05T15:19:55Z</time>
      </trkpt>
      <trkpt lat="45.26835" lon="4.1948">
        <ele>716.1</ele>
        <time>2015-12-05T15:19:58Z</time>
      </trkpt>
      <trkpt lat="45.26837" lon="4.19448">
        <ele>714.89</ele>
        <time>2015-12-05T15:20:02Z</time>
      </trkpt>
      <trkpt lat="45.26821" lon="4.1943">
        <ele>713.44</ele>
        <time>2015-12-05T15:20:05Z</time>
      </trkpt>
      <trkpt lat="45.26803" lon="4.19411">
        <ele>711.8</ele>
        <time>2015-12-05T15:20:08Z</time>
      </trkpt>
      <trkpt lat="45.26783" lon="4.19387">
        <ele>710.1</ele>
        <time>2015-12-05T15:20:11Z</time>
      </trkpt>
      <trkpt lat="45.26764" lon="4.19366">
        <ele>708.02</ele>
        <time>2015-12-05T15:20:14Z</time>
      </trkpt>
      <trkpt lat="45.2675" lon="4.19336">
        <ele>705.24</ele>
        <time>2015-12-05T15:20:17Z</time>
      </trkpt>
      <trkpt lat="45.2675" lon="4.19311">
        <ele>703</ele>
        <time>2015-12-05T15:20:20Z</time>
      </trkpt>
      <trkpt lat="45.26765" lon="4.19294">
        <ele>701.13</ele>
        <time>2015-12-05T15:20:23Z</time>
      </trkpt>
      <trkpt lat="45.26783" lon="4.19284">
        <ele>699.76</ele>
        <time>2015-12-05T15:20:26Z</time>
      </trkpt>
      <trkpt lat="45.26791" lon="4.19257">
        <ele>697.82</ele>
        <time>2015-12-05T15:20:30Z</time>
      </trkpt>
      <trkpt lat="45.26777" lon="4.19237">
        <ele>695.99</ele>
        <time>2015-12-05T15:20:34Z</time>
      </trkpt>
      <trkpt lat="45.26764" lon="4.19206">
        <ele>695.13</ele>
        <time>2015-12-05T15:20:38Z</time>
      </trkpt>
      <trkpt lat="45.2676" lon="4.19175">
        <ele>694.48</ele>
        <time>2015-12-05T15:20:41Z</time>
      </trkpt>
      <trkpt lat="45.26746" lon="4.19153">
        <ele>693.12</ele>
        <time>2015-12-05T15:20:44Z</time>
      </trkpt>
      <trkpt lat="45.26725" lon="4.19134">
        <ele>692.49</ele>
        <time>2015-12-05T15:20:48Z</time>
      </trkpt>
      <trkpt lat="45.26712" lon="4.19114">
        <ele>692.29</ele>
        <time>2015-12-05T15:20:51Z</time>
      </trkpt>
      <trkpt lat="45.26698" lon="4.19093">
        <ele>691.78</ele>
        <time>2015-12-05T15:20:54Z</time>
      </trkpt>
      <trkpt lat="45.26684" lon="4.19072">
        <ele>690.93</ele>
        <time>2015-12-05T15:20:57Z</time>
      </trkpt>
      <trkpt lat="45.2667" lon="4.19054">
        <ele>690.04</ele>
        <time>2015-12-05T15:21:00Z</time>
      </trkpt>
      <trkpt lat="45.26653" lon="4.19036">
        <ele>689.29</ele>
        <time>2015-12-05T15:21:03Z</time>
      </trkpt>
      <trkpt lat="45.26637" lon="4.1902">
        <ele>688.25</ele>
        <time>2015-12-05T15:21:06Z</time>
      </trkpt>
      <trkpt lat="45.26621" lon="4.19001">
        <ele>687.17</ele>
        <time>2015-12-05T15:21:09Z</time>
      </trkpt>
      <trkpt lat="45.26607" lon="4.18979">
        <ele>686.4</ele>
        <time>2015-12-05T15:21:12Z</time>
      </trkpt>
      <trkpt lat="45.26597" lon="4.18956">
        <ele>685.68</ele>
        <time>2015-12-05T15:21:15Z</time>
      </trkpt>
      <trkpt lat="45.2659" lon="4.18931">
        <ele>684.64</ele>
        <time>2015-12-05T15:21:18Z</time>
      </trkpt>
      <trkpt lat="45.26587" lon="4.18899">
        <ele>681.98</ele>
        <time>2015-12-05T15:21:22Z</time>
      </trkpt>
      <trkpt lat="45.26596" lon="4.1887">
        <ele>679.22</ele>
        <time>2015-12-05T15:21:25Z</time>
      </trkpt>
      <trkpt lat="45.266" lon="4.18839">
        <ele>676.4</ele>
        <time>2015-12-05T15:21:28Z</time>
      </trkpt>
      <trkpt lat="45.26602" lon="4.18808">
        <ele>674.28</ele>
        <time>2015-12-05T15:21:31Z</time>
      </trkpt>
      <trkpt lat="45.26605" lon="4.18777">
        <ele>673.42</ele>
        <time>2015-12-05T15:21:34Z</time>
      </trkpt>
      <trkpt lat="45.26607" lon="4.1875">
        <ele>673.05</ele>
        <time>2015-12-05T15:21:37Z</time>
      </trkpt>
      <trkpt lat="45.26605" lon="4.18724">
        <ele>673.31</ele>
        <time>2015-12-05T15:21:40Z</time>
      </trkpt>
      <trkpt lat="45.26598" lon="4.18692">
        <ele>673.64</ele>
        <time>2015-12-05T15:21:44Z</time>
      </trkpt>
      <trkpt lat="45.26588" lon="4.18668">
        <ele>673.56</ele>
        <time>2015-12-05T15:21:47Z</time>
      </trkpt>
      <trkpt lat="45.26584" lon="4.18639">
        <ele>672.7</ele>
        <time>2015-12-05T15:21:50Z</time>
      </trkpt>
      <trkpt lat="45.2659" lon="4.18608">
        <ele>671.36</ele>
        <time>2015-12-05T15:21:53Z</time>
      </trkpt>
      <trkpt lat="45.26599" lon="4.18581">
        <ele>669.9</ele>
        <time>2015-12-05T15:21:56Z</time>
      </trkpt>
      <trkpt lat="45.26612" lon="4.18553">
        <ele>669.19</ele>
        <time>2015-12-05T15:22:00Z</time>
      </trkpt>
      <trkpt lat="45.26627" lon="4.18532">
        <ele>668.8</ele>
        <time>2015-12-05T15:22:03Z</time>
      </trkpt>
      <trkpt lat="45.26646" lon="4.18519">
        <ele>668.28</ele>
        <time>2015-12-05T15:22:06Z</time>
      </trkpt>
      <trkpt lat="45.26666" lon="4.18512">
        <ele>668.12</ele>
        <time>2015-12-05T15:22:10Z</time>
      </trkpt>
      <trkpt lat="45.26684" lon="4.18504">
        <ele>668.98</ele>
        <time>2015-12-05T15:22:14Z</time>
      </trkpt>
      <trkpt lat="45.26705" lon="4.1849">
        <ele>670.35</ele>
        <time>2015-12-05T15:22:19Z</time>
      </trkpt>
      <trkpt lat="45.26723" lon="4.18478">
        <ele>671.57</ele>
        <time>2015-12-05T15:22:24Z</time>
      </trkpt>
      <trkpt lat="45.2674" lon="4.18467">
        <ele>672.94</ele>
        <time>2015-12-05T15:22:30Z</time>
      </trkpt>
      <trkpt lat="45.26761" lon="4.18463">
        <ele>675.51</ele>
        <time>2015-12-05T15:22:39Z</time>
      </trkpt>
      <trkpt lat="45.26783" lon="4.18468">
        <ele>678.09</ele>
        <time>2015-12-05T15:22:49Z</time>
      </trkpt>
      <trkpt lat="45.26803" lon="4.18481">
        <ele>678.98</ele>
        <time>2015-12-05T15:22:58Z</time>
      </trkpt>
      <trkpt lat="45.26819" lon="4.18499">
        <ele>679.61</ele>
        <time>2015-12-05T15:23:04Z</time>
      </trkpt>
      <trkpt lat="45.26839" lon="4.18502">
        <ele>679.49</ele>
        <time>2015-12-05T15:23:09Z</time>
      </trkpt>
      <trkpt lat="45.26859" lon="4.1849">
        <ele>680.24</ele>
        <time>2015-12-05T15:23:15Z</time>
      </trkpt>
      <trkpt lat="45.26876" lon="4.18481">
        <ele>681.51</ele>
        <time>2015-12-05T15:23:22Z</time>
      </trkpt>
      <trkpt lat="45.26897" lon="4.18474">
        <ele>683.75</ele>
        <time>2015-12-05T15:23:32Z</time>
      </trkpt>
      <trkpt lat="45.26914" lon="4.18457">
        <ele>684.68</ele>
        <time>2015-12-05T15:23:41Z</time>
      </trkpt>
      <trkpt lat="45.26926" lon="4.18433">
        <ele>685.33</ele>
        <time>2015-12-05T15:23:50Z</time>
      </trkpt>
      <trkpt lat="45.2694" lon="4.18413">
        <ele>687.42</ele>
        <time>2015-12-05T15:24:02Z</time>
      </trkpt>
      <trkpt lat="45.26957" lon="4.184">
        <ele>689.44</ele>
        <time>2015-12-05T15:24:14Z</time>
      </trkpt>
      <trkpt lat="45.26973" lon="4.18386">
        <ele>690.49</ele>
        <time>2015-12-05T15:24:23Z</time>
      </trkpt>
      <trkpt lat="45.2699" lon="4.18376">
        <ele>690.36</ele>
        <time>2015-12-05T15:24:28Z</time>
      </trkpt>
      <trkpt lat="45.27009" lon="4.18362">
        <ele>689.86</ele>
        <time>2015-12-05T15:24:33Z</time>
      </trkpt>
      <trkpt lat="45.27029" lon="4.18345">
        <ele>688.99</ele>
        <time>2015-12-05T15:24:37Z</time>
      </trkpt>
      <trkpt lat="45.27048" lon="4.18341">
        <ele>687.87</ele>
        <time>2015-12-05T15:24:40Z</time>
      </trkpt>
      <trkpt lat="45.2707" lon="4.18355">
        <ele>685.97</ele>
        <time>2015-12-05T15:24:43Z</time>
      </trkpt>
      <trkpt lat="45.27085" lon="4.18375">
        <ele>684.06</ele>
        <time>2015-12-05T15:24:45Z</time>
      </trkpt>
      <trkpt lat="45.27102" lon="4.18393">
        <ele>681.42</ele>
        <time>2015-12-05T15:24:47Z</time>
      </trkpt>
      <trkpt lat="45.27122" lon="4.18404">
        <ele>677.2</ele>
        <time>2015-12-05T15:24:49Z</time>
      </trkpt>
      <trkpt lat="45.27147" lon="4.18404">
        <ele>674.65</ele>
        <time>2015-12-05T15:24:52Z</time>
      </trkpt>
      <trkpt lat="45.27165" lon="4.18386">
        <ele>673.66</ele>
        <time>2015-12-05T15:24:56Z</time>
      </trkpt>
      <trkpt lat="45.27181" lon="4.1837">
        <ele>674.19</ele>
        <time>2015-12-05T15:25:02Z</time>
      </trkpt>
      <trkpt lat="45.27195" lon="4.18352">
        <ele>675.43</ele>
        <time>2015-12-05T15:25:12Z</time>
      </trkpt>
      <trkpt lat="45.27209" lon="4.18336">
        <ele>675.63</ele>
        <time>2015-12-05T15:25:19Z</time>
      </trkpt>
      <trkpt lat="45.27227" lon="4.18321">
        <ele>675.77</ele>
        <time>2015-12-05T15:25:24Z</time>
      </trkpt>
      <trkpt lat="45.27243" lon="4.18307">
        <ele>675.97</ele>
        <time>2015-12-05T15:25:28Z</time>
      </trkpt>
      <trkpt lat="45.2726" lon="4.18293">
        <ele>676.07</ele>
        <time>2015-12-05T15:25:32Z</time>
      </trkpt>
      <trkpt lat="45.27276" lon="4.18278">
        <ele>676.2</ele>
        <time>2015-12-05T15:25:36Z</time>
      </trkpt>
      <trkpt lat="45.27291" lon="4.18261">
        <ele>676.68</ele>
        <time>2015-12-05T15:25:41Z</time>
      </trkpt>
      <trkpt lat="45.27309" lon="4.18246">
        <ele>678.07</ele>
        <time>2015-12-05T15:25:48Z</time>
      </trkpt>
      <trkpt lat="45.27327" lon="4.18237">
        <ele>678.55</ele>
        <time>2015-12-05T15:25:54Z</time>
      </trkpt>
      <trkpt lat="45.27346" lon="4.18225">
        <ele>679.85</ele>
        <time>2015-12-05T15:26:02Z</time>
      </trkpt>
      <trkpt lat="45.27365" lon="4.18211">
        <ele>680.59</ele>
        <time>2015-12-05T15:26:09Z</time>
      </trkpt>
      <trkpt lat="45.2738" lon="4.18197">
        <ele>681</ele>
        <time>2015-12-05T15:26:14Z</time>
      </trkpt>
      <trkpt lat="45.27396" lon="4.18182">
        <ele>680.95</ele>
        <time>2015-12-05T15:26:18Z</time>
      </trkpt>
      <trkpt lat="45.27414" lon="4.18163">
        <ele>680.37</ele>
        <time>2015-12-05T15:26:22Z</time>
      </trkpt>
      <trkpt lat="45.27428" lon="4.18141">
        <ele>679.43</ele>
        <time>2015-12-05T15:26:26Z</time>
      </trkpt>
      <trkpt lat="45.27441" lon="4.18118">
        <ele>679.22</ele>
        <time>2015-12-05T15:26:31Z</time>
      </trkpt>
      <trkpt lat="45.27454" lon="4.18099">
        <ele>679.57</ele>
        <time>2015-12-05T15:26:36Z</time>
      </trkpt>
      <trkpt lat="45.27472" lon="4.18084">
        <ele>680.13</ele>
        <time>2015-12-05T15:26:42Z</time>
      </trkpt>
      <trkpt lat="45.27489" lon="4.18066">
        <ele>680.55</ele>
        <time>2015-12-05T15:26:49Z</time>
      </trkpt>
      <trkpt lat="45.27505" lon="4.18047">
        <ele>682.41</ele>
        <time>2015-12-05T15:27:00Z</time>
      </trkpt>
      <trkpt lat="45.27523" lon="4.18034">
        <ele>684.51</ele>
        <time>2015-12-05T15:27:14Z</time>
      </trkpt>
      <trkpt lat="45.27544" lon="4.18025">
        <ele>685.29</ele>
        <time>2015-12-05T15:27:25Z</time>
      </trkpt>
      <trkpt lat="45.27564" lon="4.18016">
        <ele>685.57</ele>
        <time>2015-12-05T15:27:34Z</time>
      </trkpt>
      <trkpt lat="45.27583" lon="4.18018">
        <ele>686.34</ele>
        <time>2015-12-05T15:27:43Z</time>
      </trkpt>
      <trkpt lat="45.27601" lon="4.18017">
        <ele>687.17</ele>
        <time>2015-12-05T15:27:50Z</time>
      </trkpt>
      <trkpt lat="45.2762" lon="4.18015">
        <ele>687.65</ele>
        <time>2015-12-05T15:27:58Z</time>
      </trkpt>
      <trkpt lat="45.2764" lon="4.18018">
        <ele>688.69</ele>
        <time>2015-12-05T15:28:07Z</time>
      </trkpt>
      <trkpt lat="45.27659" lon="4.18018">
        <ele>689.09</ele>
        <time>2015-12-05T15:28:16Z</time>
      </trkpt>
      <trkpt lat="45.27677" lon="4.18012">
        <ele>690.06</ele>
        <time>2015-12-05T15:28:25Z</time>
      </trkpt>
      <trkpt lat="45.27694" lon="4.18004">
        <ele>690.61</ele>
        <time>2015-12-05T15:28:35Z</time>
      </trkpt>
      <trkpt lat="45.27714" lon="4.18">
        <ele>690.69</ele>
        <time>2015-12-05T15:28:46Z</time>
      </trkpt>
      <trkpt lat="45.27733" lon="4.17994">
        <ele>690.98</ele>
        <time>2015-12-05T15:28:56Z</time>
      </trkpt>
      <trkpt lat="45.27751" lon="4.17989">
        <ele>691.5</ele>
        <time>2015-12-05T15:29:08Z</time>
      </trkpt>
      <trkpt lat="45.27765" lon="4.17999">
        <ele>692.73</ele>
        <time>2015-12-05T15:29:36Z</time>
      </trkpt>
      <trkpt lat="45.27768" lon="4.18025">
        <ele>693.22</ele>
        <time>2015-12-05T15:29:43Z</time>
      </trkpt>
      <trkpt lat="45.2777" lon="4.18052">
        <ele>693.67</ele>
        <time>2015-12-05T15:29:50Z</time>
      </trkpt>
      <trkpt lat="45.2777" lon="4.18081">
        <ele>693.83</ele>
        <time>2015-12-05T15:29:57Z</time>
      </trkpt>
      <trkpt lat="45.27768" lon="4.18109">
        <ele>693.82</ele>
        <time>2015-12-05T15:30:03Z</time>
      </trkpt>
      <trkpt lat="45.27765" lon="4.18137">
        <ele>694.28</ele>
        <time>2015-12-05T15:30:09Z</time>
      </trkpt>
      <trkpt lat="45.27761" lon="4.18164">
        <ele>694.43</ele>
        <time>2015-12-05T15:30:15Z</time>
      </trkpt>
      <trkpt lat="45.27755" lon="4.18191">
        <ele>695.04</ele>
        <time>2015-12-05T15:30:22Z</time>
      </trkpt>
      <trkpt lat="45.27749" lon="4.18217">
        <ele>695.47</ele>
        <time>2015-12-05T15:30:30Z</time>
      </trkpt>
      <trkpt lat="45.27761" lon="4.18236">
        <ele>696.53</ele>
        <time>2015-12-05T15:30:37Z</time>
      </trkpt>
      <trkpt lat="45.27778" lon="4.18252">
        <ele>696.52</ele>
        <time>2015-12-05T15:30:41Z</time>
      </trkpt>
      <trkpt lat="45.27794" lon="4.18267">
        <ele>695.31</ele>
        <time>2015-12-05T15:30:44Z</time>
      </trkpt>
      <trkpt lat="45.27809" lon="4.18284">
        <ele>693.93</ele>
        <time>2015-12-05T15:30:48Z</time>
      </trkpt>
      <trkpt lat="45.27827" lon="4.183">
        <ele>692.98</ele>
        <time>2015-12-05T15:30:53Z</time>
      </trkpt>
      <trkpt lat="45.27845" lon="4.18303">
        <ele>692.4</ele>
        <time>2015-12-05T15:30:56Z</time>
      </trkpt>
      <trkpt lat="45.27865" lon="4.18302">
        <ele>691.58</ele>
        <time>2015-12-05T15:30:59Z</time>
      </trkpt>
      <trkpt lat="45.27889" lon="4.183">
        <ele>690.68</ele>
        <time>2015-12-05T15:31:02Z</time>
      </trkpt>
      <trkpt lat="45.27914" lon="4.18298">
        <ele>689.29</ele>
        <time>2015-12-05T15:31:05Z</time>
      </trkpt>
      <trkpt lat="45.27941" lon="4.18296">
        <ele>687.9</ele>
        <time>2015-12-05T15:31:08Z</time>
      </trkpt>
      <trkpt lat="45.2796" lon="4.18294">
        <ele>686.21</ele>
        <time>2015-12-05T15:31:10Z</time>
      </trkpt>
      <trkpt lat="45.2798" lon="4.18293">
        <ele>684.9</ele>
        <time>2015-12-05T15:31:12Z</time>
      </trkpt>
      <trkpt lat="45.28" lon="4.18291">
        <ele>683.6</ele>
        <time>2015-12-05T15:31:14Z</time>
      </trkpt>
      <trkpt lat="45.2802" lon="4.18288">
        <ele>682.16</ele>
        <time>2015-12-05T15:31:16Z</time>
      </trkpt>
      <trkpt lat="45.28041" lon="4.18284">
        <ele>680.88</ele>
        <time>2015-12-05T15:31:18Z</time>
      </trkpt>
      <trkpt lat="45.28062" lon="4.18279">
        <ele>679.85</ele>
        <time>2015-12-05T15:31:20Z</time>
      </trkpt>
      <trkpt lat="45.28083" lon="4.18271">
        <ele>678.79</ele>
        <time>2015-12-05T15:31:22Z</time>
      </trkpt>
      <trkpt lat="45.28103" lon="4.1826">
        <ele>677.63</ele>
        <time>2015-12-05T15:31:24Z</time>
      </trkpt>
      <trkpt lat="45.28123" lon="4.18245">
        <ele>676.3</ele>
        <time>2015-12-05T15:31:26Z</time>
      </trkpt>
      <trkpt lat="45.28143" lon="4.18228">
        <ele>675.18</ele>
        <time>2015-12-05T15:31:28Z</time>
      </trkpt>
      <trkpt lat="45.28161" lon="4.18207">
        <ele>673.98</ele>
        <time>2015-12-05T15:31:30Z</time>
      </trkpt>
      <trkpt lat="45.2818" lon="4.18184">
        <ele>672.68</ele>
        <time>2015-12-05T15:31:32Z</time>
      </trkpt>
      <trkpt lat="45.28196" lon="4.18159">
        <ele>671.2</ele>
        <time>2015-12-05T15:31:34Z</time>
      </trkpt>
      <trkpt lat="45.28213" lon="4.18133">
        <ele>668.38</ele>
        <time>2015-12-05T15:31:36Z</time>
      </trkpt>
      <trkpt lat="45.28229" lon="4.18108">
        <ele>666.44</ele>
        <time>2015-12-05T15:31:38Z</time>
      </trkpt>
      <trkpt lat="45.28246" lon="4.18083">
        <ele>664.9</ele>
        <time>2015-12-05T15:31:40Z</time>
      </trkpt>
      <trkpt lat="45.28263" lon="4.18059">
        <ele>663.51</ele>
        <time>2015-12-05T15:31:42Z</time>
      </trkpt>
      <trkpt lat="45.28281" lon="4.18037">
        <ele>662.05</ele>
        <time>2015-12-05T15:31:44Z</time>
      </trkpt>
      <trkpt lat="45.28298" lon="4.18016">
        <ele>660.62</ele>
        <time>2015-12-05T15:31:46Z</time>
      </trkpt>
      <trkpt lat="45.28314" lon="4.17997">
        <ele>659.25</ele>
        <time>2015-12-05T15:31:48Z</time>
      </trkpt>
      <trkpt lat="45.2833" lon="4.17983">
        <ele>658.25</ele>
        <time>2015-12-05T15:31:50Z</time>
      </trkpt>
      <trkpt lat="45.28354" lon="4.1797">
        <ele>656.93</ele>
        <time>2015-12-05T15:31:53Z</time>
      </trkpt>
      <trkpt lat="45.28359" lon="4.1794">
        <ele>655.63</ele>
        <time>2015-12-05T15:31:56Z</time>
      </trkpt>
      <trkpt lat="45.28352" lon="4.17913">
        <ele>654.84</ele>
        <time>2015-12-05T15:31:59Z</time>
      </trkpt>
      <trkpt lat="45.2834" lon="4.1789">
        <ele>654.72</ele>
        <time>2015-12-05T15:32:03Z</time>
      </trkpt>
      <trkpt lat="45.2832" lon="4.17886">
        <ele>656.1</ele>
        <time>2015-12-05T15:32:09Z</time>
      </trkpt>
      <trkpt lat="45.283" lon="4.17892">
        <ele>658.69</ele>
        <time>2015-12-05T15:32:17Z</time>
      </trkpt>
      <trkpt lat="45.28281" lon="4.1789">
        <ele>661.93</ele>
        <time>2015-12-05T15:32:28Z</time>
      </trkpt>
      <trkpt lat="45.28267" lon="4.17872">
        <ele>663.58</ele>
        <time>2015-12-05T15:32:38Z</time>
      </trkpt>
      <trkpt lat="45.28268" lon="4.17844">
        <ele>664.82</ele>
        <time>2015-12-05T15:32:48Z</time>
      </trkpt>
      <trkpt lat="45.28282" lon="4.17822">
        <ele>665</ele>
        <time>2015-12-05T15:32:55Z</time>
      </trkpt>
      <trkpt lat="45.28295" lon="4.17801">
        <ele>664.89</ele>
        <time>2015-12-05T15:33:01Z</time>
      </trkpt>
      <trkpt lat="45.28308" lon="4.17781">
        <ele>665.04</ele>
        <time>2015-12-05T15:33:07Z</time>
      </trkpt>
      <trkpt lat="45.28318" lon="4.17758">
        <ele>665.41</ele>
        <time>2015-12-05T15:33:14Z</time>
      </trkpt>
      <trkpt lat="45.2833" lon="4.17736">
        <ele>665.26</ele>
        <time>2015-12-05T15:33:22Z</time>
      </trkpt>
      <trkpt lat="45.28325" lon="4.17712">
        <ele>665.05</ele>
        <time>2015-12-05T15:33:29Z</time>
      </trkpt>
      <trkpt lat="45.28305" lon="4.17715">
        <ele>664.7</ele>
        <time>2015-12-05T15:33:37Z</time>
      </trkpt>
      <trkpt lat="45.28287" lon="4.17711">
        <ele>664.49</ele>
        <time>2015-12-05T15:33:45Z</time>
      </trkpt>
      <trkpt lat="45.2827" lon="4.1772">
        <ele>664.11</ele>
        <time>2015-12-05T15:33:56Z</time>
      </trkpt>
    </trkseg>
  </trk>
</gpx>